PWSweather.com
Personal Weather Stations
Station Observations
KNJSTAFF6
Village Harbor, Beach Haven West, Manahawkin, NJ 08050

Village Harbor, Beach Haven WestManahawkin, NJ 08050

Lat: 39.67889410559905, Lon: -74.24244902883606

Elevation: 15

Station Type: Oregon Scientific WMR88A

Latest ConditionsUpdated 8:15:00 AM EDT Tuesday, Jul 23, 2019
Currently Today's Max Today's Min Today's Average
Temperature 70.5°F21.4°C 74.1°F23.4°C 70.3°F21.3°C 72.7°F22.6°C
Dew Point 69.9°F21.1°C 73.5°F23.1°C 69.7°F20.9°C 72.1°F22.3°C
Winds 5.1 mph WNW8.2 kmh WNW 9.3 mph -15.0 kmh - - 2.7 mph 4.3 kmh
Wind Gusts 8.1 mph13.0 kmh 15.2 mph24.5 kmh - -
Humidity 98% 98% 98% 98%
Pressure 29.62 in1003.0 mb 29.62 in1003.0 mb 29.50 in999.0 mb -
Hour Temp Dew Point Humidity Winds Wind Gusts Pressure Precip Precip Rate Daily Precip Total
08:15 AM 70.5°F21.4°C 69.9°F21.1°C 98% 5.1 mph WNW8.2 kmh WNW 8.1 mph13.0 kmh 29.62 in1003.0 mb 0.00 in0.0 mm 0.00 in0.0 mm 0.00 in0.0 mm
08:14 AM 70.5°F21.4°C 69.9°F21.1°C 98% 5.0 mph W8.0 kmh W 8.1 mph13.0 kmh 29.62 in1003.0 mb 0.00 in0.0 mm 0.00 in0.0 mm 0.00 in0.0 mm
08:13 AM 70.3°F21.3°C 69.7°F20.9°C 98% 4.6 mph W7.4 kmh W 8.9 mph14.3 kmh 29.62 in1003.0 mb 0.00 in0.0 mm 0.00 in0.0 mm 0.00 in0.0 mm
08:12 AM 70.3°F21.3°C 69.7°F20.9°C 98% 4.5 mph W7.2 kmh W 8.9 mph14.3 kmh 29.62 in1003.0 mb 0.00 in0.0 mm 0.00 in0.0 mm 0.00 in0.0 mm
08:11 AM 70.3°F21.3°C 69.7°F20.9°C 98% 4.5 mph W7.2 kmh W 8.9 mph14.3 kmh 29.62 in1003.0 mb 0.00 in0.0 mm 0.00 in0.0 mm 0.00 in0.0 mm
08:10 AM 70.3°F21.3°C 69.7°F20.9°C 98% 4.5 mph W7.2 kmh W 8.9 mph14.3 kmh 29.62 in1003.0 mb 0.00 in0.0 mm 0.00 in0.0 mm 0.00 in0.0 mm
08:09 AM 70.3°F21.3°C 69.7°F20.9°C 98% 4.7 mph W7.6 kmh W 8.9 mph14.3 kmh 29.62 in1003.0 mb 0.00 in0.0 mm 0.00 in0.0 mm 0.00 in0.0 mm
08:08 AM 70.3°F21.3°C 69.7°F20.9°C 98% 4.6 mph W7.4 kmh W 8.9 mph14.3 kmh 29.62 in1003.0 mb 0.00 in0.0 mm 0.00 in0.0 mm 0.00 in0.0 mm
08:07 AM 70.3°F21.3°C 69.7°F20.9°C 98% 4.4 mph W7.1 kmh W 8.9 mph14.3 kmh 29.62 in1003.0 mb 0.00 in0.0 mm 0.00 in0.0 mm 0.00 in0.0 mm
08:06 AM 70.5°F21.4°C 69.9°F21.1°C 98% 4.0 mph W6.4 kmh W 8.9 mph14.3 kmh 29.62 in1003.0 mb 0.00 in0.0 mm 0.00 in0.0 mm 0.00 in0.0 mm
08:05 AM 70.5°F21.4°C 69.9°F21.1°C 98% 4.1 mph W6.6 kmh W 8.9 mph14.3 kmh 29.62 in1003.0 mb 0.00 in0.0 mm 0.00 in0.0 mm 0.00 in0.0 mm
08:04 AM 70.5°F21.4°C 69.9°F21.1°C 98% 4.1 mph W6.6 kmh W 8.9 mph14.3 kmh 29.62 in1003.0 mb 0.00 in0.0 mm 0.00 in0.0 mm 0.00 in0.0 mm
08:03 AM 70.5°F21.4°C 69.9°F21.1°C 98% 4.0 mph W6.4 kmh W 6.5 mph10.5 kmh 29.62 in1003.0 mb 0.00 in0.0 mm 0.00 in0.0 mm 0.00 in0.0 mm
08:02 AM 70.5°F21.4°C 69.9°F21.1°C 98% 4.4 mph W7.1 kmh W 8.1 mph13.0 kmh 29.62 in1003.0 mb 0.00 in0.0 mm 0.00 in0.0 mm 0.00 in0.0 mm
08:01 AM 70.5°F21.4°C 69.9°F21.1°C 98% 4.4 mph W7.1 kmh W 8.1 mph13.0 kmh 29.62 in1003.0 mb 0.00 in0.0 mm 0.00 in0.0 mm 0.00 in0.0 mm
08:00 AM 70.5°F21.4°C 69.9°F21.1°C 98% 4.4 mph W7.1 kmh W 8.1 mph13.0 kmh 29.62 in1003.0 mb 0.00 in0.0 mm 0.00 in0.0 mm 0.00 in0.0 mm
07:59 AM 70.5°F21.4°C 69.9°F21.1°C 98% 4.3 mph WSW6.9 kmh WSW 8.1 mph13.0 kmh 29.62 in1003.0 mb 0.00 in0.0 mm 0.00 in0.0 mm 0.00 in0.0 mm
07:58 AM 70.5°F21.4°C 69.9°F21.1°C 98% 5.0 mph W8.0 kmh W 9.6 mph15.4 kmh 29.62 in1003.0 mb 0.00 in0.0 mm 0.00 in0.0 mm 0.00 in0.0 mm
07:57 AM 70.7°F21.5°C 70.1°F21.2°C 98% 6.4 mph WNW10.3 kmh WNW 9.8 mph15.8 kmh 29.62 in1003.0 mb 0.00 in0.0 mm 0.00 in0.0 mm 0.00 in0.0 mm
07:56 AM 70.7°F21.5°C 70.1°F21.2°C 98% 6.7 mph WNW10.8 kmh WNW 9.8 mph15.8 kmh 29.62 in1003.0 mb 0.00 in0.0 mm 0.00 in0.0 mm 0.00 in0.0 mm
07:55 AM 70.7°F21.5°C 70.1°F21.2°C 98% 6.4 mph WNW10.3 kmh WNW 9.8 mph15.8 kmh 29.62 in1003.0 mb 0.00 in0.0 mm 0.00 in0.0 mm 0.00 in0.0 mm
07:54 AM 70.9°F21.6°C 70.3°F21.3°C 98% 6.7 mph WNW10.8 kmh WNW 9.8 mph15.8 kmh 29.62 in1003.0 mb 0.00 in0.0 mm 0.00 in0.0 mm 0.00 in0.0 mm
07:53 AM 70.9°F21.6°C 70.3°F21.3°C 98% 6.7 mph WNW10.8 kmh WNW 9.8 mph15.8 kmh 29.62 in1003.0 mb 0.00 in0.0 mm 0.00 in0.0 mm 0.00 in0.0 mm
07:52 AM 70.9°F21.6°C 70.3°F21.3°C 98% 6.7 mph WNW10.8 kmh WNW 9.8 mph15.8 kmh 29.62 in1003.0 mb 0.00 in0.0 mm 0.00 in0.0 mm 0.00 in0.0 mm
07:51 AM 70.9°F21.6°C 70.3°F21.3°C 98% 6.5 mph NW10.5 kmh NW 9.8 mph15.8 kmh 29.62 in1003.0 mb 0.00 in0.0 mm 0.00 in0.0 mm 0.00 in0.0 mm
07:50 AM 70.9°F21.6°C 70.3°F21.3°C 98% 6.9 mph NW11.1 kmh NW 9.8 mph15.8 kmh 29.59 in1002.0 mb 0.00 in0.0 mm 0.00 in0.0 mm 0.00 in0.0 mm
07:49 AM 70.9°F21.6°C 70.3°F21.3°C 98% 6.8 mph NW10.9 kmh NW 9.8 mph15.8 kmh 29.59 in1002.0 mb 0.00 in0.0 mm 0.00 in0.0 mm 0.00 in0.0 mm
07:48 AM 70.9°F21.6°C 70.3°F21.3°C 98% 6.4 mph WNW10.3 kmh WNW 9.8 mph15.8 kmh 29.59 in1002.0 mb 0.00 in0.0 mm 0.00 in0.0 mm 0.00 in0.0 mm
07:47 AM 71.1°F21.7°C 70.5°F21.4°C 98% 6.0 mph WNW9.7 kmh WNW 8.7 mph14.0 kmh 29.59 in1002.0 mb 0.00 in0.0 mm 0.00 in0.0 mm 0.00 in0.0 mm
07:46 AM 71.1°F21.7°C 70.5°F21.4°C 98% 5.8 mph WNW9.3 kmh WNW 8.1 mph13.0 kmh 29.59 in1002.0 mb 0.00 in0.0 mm 0.00 in0.0 mm 0.00 in0.0 mm
07:45 AM 70.9°F21.6°C 70.3°F21.3°C 98% 6.1 mph WNW9.8 kmh WNW 9.8 mph15.8 kmh 29.59 in1002.0 mb 0.00 in0.0 mm 0.00 in0.0 mm 0.00 in0.0 mm
07:44 AM 70.9°F21.6°C 70.3°F21.3°C 98% 6.4 mph WNW10.3 kmh WNW 9.8 mph15.8 kmh 29.59 in1002.0 mb 0.00 in0.0 mm 0.00 in0.0 mm 0.00 in0.0 mm
07:43 AM 71.1°F21.7°C 70.5°F21.4°C 98% 6.2 mph WNW10.0 kmh WNW 9.8 mph15.8 kmh 29.59 in1002.0 mb 0.00 in0.0 mm 0.00 in0.0 mm 0.00 in0.0 mm
07:42 AM 71.1°F21.7°C 70.5°F21.4°C 98% 6.1 mph WNW9.8 kmh WNW 9.8 mph15.8 kmh 29.59 in1002.0 mb 0.00 in0.0 mm 0.00 in0.0 mm 0.00 in0.0 mm
07:41 AM 71.1°F21.7°C 70.5°F21.4°C 98% 5.9 mph WNW9.5 kmh WNW 9.8 mph15.8 kmh 29.59 in1002.0 mb 0.00 in0.0 mm 0.00 in0.0 mm 0.00 in0.0 mm
07:40 AM 71.1°F21.7°C 70.5°F21.4°C 98% 5.3 mph WNW8.5 kmh WNW 9.8 mph15.8 kmh 29.59 in1002.0 mb 0.00 in0.0 mm 0.00 in0.0 mm 0.00 in0.0 mm
07:39 AM 71.1°F21.7°C 70.5°F21.4°C 98% 5.4 mph W8.7 kmh W 9.8 mph15.8 kmh 29.59 in1002.0 mb 0.00 in0.0 mm 0.00 in0.0 mm 0.00 in0.0 mm
07:38 AM 71.1°F21.7°C 70.5°F21.4°C 98% 5.3 mph W8.5 kmh W 9.8 mph15.8 kmh 29.59 in1002.0 mb 0.00 in0.0 mm 0.00 in0.0 mm 0.00 in0.0 mm
07:37 AM 71.1°F21.7°C 70.5°F21.4°C 98% 5.2 mph W8.4 kmh W 9.8 mph15.8 kmh 29.59 in1002.0 mb 0.00 in0.0 mm 0.00 in0.0 mm 0.00 in0.0 mm
07:36 AM 71.1°F21.7°C 70.5°F21.4°C 98% 4.9 mph W7.9 kmh W 9.8 mph15.8 kmh 29.59 in1002.0 mb 0.00 in0.0 mm 0.00 in0.0 mm 0.00 in0.0 mm
07:35 AM 71.1°F21.7°C 70.5°F21.4°C 98% 4.6 mph W7.4 kmh W 7.6 mph12.2 kmh 29.56 in1001.0 mb 0.00 in0.0 mm 0.00 in0.0 mm 0.00 in0.0 mm
07:34 AM 71.2°F21.8°C 70.6°F21.4°C 98% 4.7 mph W7.6 kmh W 7.6 mph12.2 kmh 29.56 in1001.0 mb 0.00 in0.0 mm 0.00 in0.0 mm 0.00 in0.0 mm
07:33 AM 71.2°F21.8°C 70.6°F21.4°C 98% 4.7 mph W7.6 kmh W 7.6 mph12.2 kmh 29.56 in1001.0 mb 0.00 in0.0 mm 0.00 in0.0 mm 0.00 in0.0 mm
07:32 AM 71.2°F21.8°C 70.6°F21.4°C 98% 5.0 mph W8.0 kmh W 7.6 mph12.2 kmh 29.56 in1001.0 mb 0.00 in0.0 mm 0.00 in0.0 mm 0.00 in0.0 mm
07:31 AM 71.2°F21.8°C 70.6°F21.4°C 98% 5.3 mph W8.5 kmh W 7.6 mph12.2 kmh 29.56 in1001.0 mb 0.00 in0.0 mm 0.00 in0.0 mm 0.00 in0.0 mm
07:30 AM 71.2°F21.8°C 70.6°F21.4°C 98% 5.3 mph W8.5 kmh W 7.6 mph12.2 kmh 29.56 in1001.0 mb 0.00 in0.0 mm 0.00 in0.0 mm 0.00 in0.0 mm
07:29 AM 71.2°F21.8°C 70.6°F21.4°C 98% 5.3 mph W8.5 kmh W 7.6 mph12.2 kmh 29.56 in1001.0 mb 0.00 in0.0 mm 0.00 in0.0 mm 0.00 in0.0 mm
07:28 AM 71.2°F21.8°C 70.6°F21.4°C 98% 5.4 mph WNW8.7 kmh WNW 7.6 mph12.2 kmh 29.56 in1001.0 mb 0.00 in0.0 mm 0.00 in0.0 mm 0.00 in0.0 mm
07:27 AM 71.4°F21.9°C 70.8°F21.6°C 98% 5.7 mph WNW9.2 kmh WNW 8.5 mph13.7 kmh 29.56 in1001.0 mb 0.00 in0.0 mm 0.00 in0.0 mm 0.00 in0.0 mm
07:26 AM 71.4°F21.9°C 70.8°F21.6°C 98% 6.1 mph WNW9.8 kmh WNW 8.5 mph13.7 kmh 29.56 in1001.0 mb 0.00 in0.0 mm 0.00 in0.0 mm 0.00 in0.0 mm
07:25 AM 71.4°F21.9°C 70.8°F21.6°C 98% 6.3 mph WNW10.1 kmh WNW 8.5 mph13.7 kmh 29.56 in1001.0 mb 0.00 in0.0 mm 0.00 in0.0 mm 0.00 in0.0 mm
07:24 AM 71.4°F21.9°C 70.8°F21.6°C 98% 6.5 mph WNW10.5 kmh WNW 9.6 mph15.4 kmh 29.56 in1001.0 mb 0.00 in0.0 mm 0.00 in0.0 mm 0.00 in0.0 mm
07:23 AM 71.4°F21.9°C 70.8°F21.6°C 98% 6.9 mph WNW11.1 kmh WNW 9.6 mph15.4 kmh 29.56 in1001.0 mb 0.00 in0.0 mm 0.00 in0.0 mm 0.00 in0.0 mm
07:22 AM 71.6°F22.0°C 71.0°F21.7°C 98% 6.8 mph WNW10.9 kmh WNW 9.6 mph15.4 kmh 29.56 in1001.0 mb 0.00 in0.0 mm 0.00 in0.0 mm 0.00 in0.0 mm
07:21 AM 71.6°F22.0°C 71.0°F21.7°C 98% 6.8 mph WNW10.9 kmh WNW 9.6 mph15.4 kmh 29.56 in1001.0 mb 0.00 in0.0 mm 0.00 in0.0 mm 0.00 in0.0 mm
07:20 AM 71.6°F22.0°C 71.0°F21.7°C 98% 7.2 mph WNW11.6 kmh WNW 13.0 mph20.9 kmh 29.56 in1001.0 mb 0.00 in0.0 mm 0.00 in0.0 mm 0.00 in0.0 mm
07:19 AM 71.6°F22.0°C 71.0°F21.7°C 98% 7.8 mph WNW12.6 kmh WNW 13.0 mph20.9 kmh 29.56 in1001.0 mb 0.00 in0.0 mm 0.00 in0.0 mm 0.00 in0.0 mm
07:18 AM 72.0°F22.2°C 71.4°F21.9°C 98% 8.0 mph W12.9 kmh W 13.0 mph20.9 kmh 29.56 in1001.0 mb 0.00 in0.0 mm 0.00 in0.0 mm 0.00 in0.0 mm
07:17 AM 72.0°F22.2°C 71.4°F21.9°C 98% 8.1 mph W13.0 kmh W 13.0 mph20.9 kmh 29.56 in1001.0 mb 0.00 in0.0 mm 0.00 in0.0 mm 0.00 in0.0 mm
07:16 AM 72.0°F22.2°C 71.4°F21.9°C 98% 7.7 mph W12.4 kmh W 13.0 mph20.9 kmh 29.56 in1001.0 mb 0.00 in0.0 mm 0.00 in0.0 mm 0.00 in0.0 mm
07:15 AM 72.1°F22.3°C 71.5°F21.9°C 98% 8.4 mph W13.5 kmh W 15.2 mph24.5 kmh 29.56 in1001.0 mb 0.00 in0.0 mm 0.00 in0.0 mm 0.00 in0.0 mm
07:14 AM 72.1°F22.3°C 71.5°F21.9°C 98% 8.4 mph W13.5 kmh W 15.2 mph24.5 kmh 29.56 in1001.0 mb 0.00 in0.0 mm 0.00 in0.0 mm 0.00 in0.0 mm
07:13 AM 72.3°F22.4°C 71.7°F22.1°C 98% 8.2 mph W13.2 kmh W 15.2 mph24.5 kmh 29.56 in1001.0 mb 0.00 in0.0 mm 0.00 in0.0 mm 0.00 in0.0 mm
07:12 AM 72.3°F22.4°C 71.7°F22.1°C 98% 8.6 mph W13.8 kmh W 15.2 mph24.5 kmh 29.56 in1001.0 mb 0.00 in0.0 mm 0.00 in0.0 mm 0.00 in0.0 mm
07:11 AM 72.5°F22.5°C 71.9°F22.2°C 98% 9.1 mph W14.6 kmh W 15.2 mph24.5 kmh 29.56 in1001.0 mb 0.00 in0.0 mm 0.00 in0.0 mm 0.00 in0.0 mm
07:10 AM 72.7°F22.6°C 72.1°F22.3°C 98% 9.3 mph WSW15.0 kmh WSW 15.2 mph24.5 kmh 29.56 in1001.0 mb 0.00 in0.0 mm 0.00 in0.0 mm 0.00 in0.0 mm
07:09 AM 72.7°F22.6°C 72.1°F22.3°C 98% 8.4 mph WSW13.5 kmh WSW 15.2 mph24.5 kmh 29.56 in1001.0 mb 0.00 in0.0 mm 0.00 in0.0 mm 0.00 in0.0 mm
07:08 AM 72.9°F22.7°C 72.3°F22.4°C 98% 8.2 mph WSW13.2 kmh WSW 15.2 mph24.5 kmh 29.56 in1001.0 mb 0.00 in0.0 mm 0.00 in0.0 mm 0.00 in0.0 mm
07:07 AM 72.9°F22.7°C 72.3°F22.4°C 98% 7.5 mph WSW12.1 kmh WSW 15.2 mph24.5 kmh 29.56 in1001.0 mb 0.00 in0.0 mm 0.00 in0.0 mm 0.00 in0.0 mm
07:06 AM 73.2°F22.9°C 72.6°F22.6°C 98% 7.5 mph WSW12.1 kmh WSW 15.2 mph24.5 kmh 29.56 in1001.0 mb 0.00 in0.0 mm 0.00 in0.0 mm 0.00 in0.0 mm
07:05 AM 73.2°F22.9°C 72.6°F22.6°C 98% 6.8 mph SW10.9 kmh SW 12.5 mph20.1 kmh 29.56 in1001.0 mb 0.00 in0.0 mm 0.00 in0.0 mm 0.00 in0.0 mm
07:04 AM 73.2°F22.9°C 72.6°F22.6°C 98% 6.5 mph SW10.5 kmh SW 12.5 mph20.1 kmh 29.56 in1001.0 mb 0.00 in0.0 mm 0.00 in0.0 mm 0.00 in0.0 mm
07:03 AM 73.2°F22.9°C 72.6°F22.6°C 98% 6.5 mph SW10.5 kmh SW 12.5 mph20.1 kmh 29.56 in1001.0 mb 0.00 in0.0 mm 0.00 in0.0 mm 0.00 in0.0 mm
07:02 AM 73.2°F22.9°C 72.6°F22.6°C 98% 5.2 mph SW8.4 kmh SW 12.5 mph20.1 kmh 29.56 in1001.0 mb 0.00 in0.0 mm 0.00 in0.0 mm 0.00 in0.0 mm
07:01 AM 73.2°F22.9°C 72.6°F22.6°C 98% 4.0 mph SW6.4 kmh SW 10.5 mph16.9 kmh 29.56 in1001.0 mb 0.00 in0.0 mm 0.00 in0.0 mm 0.00 in0.0 mm
07:00 AM 73.2°F22.9°C 72.6°F22.6°C 98% 3.6 mph SW5.8 kmh SW 6.5 mph10.5 kmh 29.56 in1001.0 mb 0.00 in0.0 mm 0.00 in0.0 mm 0.00 in0.0 mm
06:59 AM 73.2°F22.9°C 72.6°F22.6°C 98% 3.2 mph SW5.1 kmh SW 5.8 mph9.3 kmh 29.56 in1001.0 mb 0.00 in0.0 mm 0.00 in0.0 mm 0.00 in0.0 mm
06:58 AM 73.2°F22.9°C 72.6°F22.6°C 98% 3.1 mph SW5.0 kmh SW 5.8 mph9.3 kmh 29.56 in1001.0 mb 0.00 in0.0 mm 0.00 in0.0 mm 0.00 in0.0 mm
06:57 AM 73.2°F22.9°C 72.6°F22.6°C 98% 2.9 mph SW4.7 kmh SW 5.8 mph9.3 kmh 29.56 in1001.0 mb 0.00 in0.0 mm 0.00 in0.0 mm 0.00 in0.0 mm
06:56 AM 73.2°F22.9°C 72.6°F22.6°C 98% 2.8 mph SW4.5 kmh SW 5.8 mph9.3 kmh 29.56 in1001.0 mb 0.00 in0.0 mm 0.00 in0.0 mm 0.00 in0.0 mm
06:55 AM 73.2°F22.9°C 72.6°F22.6°C 98% 2.9 mph SW4.7 kmh SW 6.7 mph10.8 kmh 29.56 in1001.0 mb 0.00 in0.0 mm 0.00 in0.0 mm 0.00 in0.0 mm
06:54 AM 73.2°F22.9°C 72.6°F22.6°C 98% 2.6 mph SW4.2 kmh SW 6.7 mph10.8 kmh 29.56 in1001.0 mb 0.00 in0.0 mm 0.00 in0.0 mm 0.00 in0.0 mm
06:53 AM 73.2°F22.9°C 72.6°F22.6°C 98% 2.6 mph SW4.2 kmh SW 6.7 mph10.8 kmh 29.56 in1001.0 mb 0.00 in0.0 mm 0.00 in0.0 mm 0.00 in0.0 mm
06:52 AM 73.2°F22.9°C 72.6°F22.6°C 98% 3.2 mph SW5.1 kmh SW 6.7 mph10.8 kmh 29.56 in1001.0 mb 0.00 in0.0 mm 0.00 in0.0 mm 0.00 in0.0 mm
06:51 AM 73.2°F22.9°C 72.6°F22.6°C 98% 3.3 mph SW5.3 kmh SW 6.7 mph10.8 kmh 29.56 in1001.0 mb 0.00 in0.0 mm 0.00 in0.0 mm 0.00 in0.0 mm
06:50 AM 73.2°F22.9°C 72.6°F22.6°C 98% 3.8 mph SW6.1 kmh SW 8.1 mph13.0 kmh 29.53 in1000.0 mb 0.00 in0.0 mm 0.00 in0.0 mm 0.00 in0.0 mm
06:49 AM 73.2°F22.9°C 72.6°F22.6°C 98% 4.1 mph SW6.6 kmh SW 8.1 mph13.0 kmh 29.53 in1000.0 mb 0.00 in0.0 mm 0.00 in0.0 mm 0.00 in0.0 mm
06:48 AM 73.2°F22.9°C 72.6°F22.6°C 98% 4.8 mph SW7.7 kmh SW 8.1 mph13.0 kmh 29.53 in1000.0 mb 0.00 in0.0 mm 0.00 in0.0 mm 0.00 in0.0 mm
06:47 AM 73.2°F22.9°C 72.6°F22.6°C 98% 5.8 mph SW9.3 kmh SW 8.5 mph13.7 kmh 29.53 in1000.0 mb 0.00 in0.0 mm 0.00 in0.0 mm 0.00 in0.0 mm
06:46 AM 73.2°F22.9°C 72.6°F22.6°C 98% 5.8 mph SW9.3 kmh SW 8.5 mph13.7 kmh 29.53 in1000.0 mb 0.00 in0.0 mm 0.00 in0.0 mm 0.00 in0.0 mm
06:45 AM 73.2°F22.9°C 72.6°F22.6°C 98% 5.3 mph SW8.5 kmh SW 8.5 mph13.7 kmh 29.53 in1000.0 mb 0.00 in0.0 mm 0.00 in0.0 mm 0.00 in0.0 mm
06:44 AM 73.2°F22.9°C 72.6°F22.6°C 98% 5.3 mph SW8.5 kmh SW 8.5 mph13.7 kmh 29.53 in1000.0 mb 0.00 in0.0 mm 0.00 in0.0 mm 0.00 in0.0 mm
06:43 AM 73.4°F23.0°C 72.8°F22.7°C 98% 5.3 mph SW8.5 kmh SW 8.5 mph13.7 kmh 29.53 in1000.0 mb 0.00 in0.0 mm 0.00 in0.0 mm 0.00 in0.0 mm
06:42 AM 73.4°F23.0°C 72.8°F22.7°C 98% 5.2 mph SW8.4 kmh SW 8.5 mph13.7 kmh 29.53 in1000.0 mb 0.00 in0.0 mm 0.00 in0.0 mm 0.00 in0.0 mm
06:41 AM 73.4°F23.0°C 72.8°F22.7°C 98% 5.3 mph WSW8.5 kmh WSW 8.5 mph13.7 kmh 29.53 in1000.0 mb 0.00 in0.0 mm 0.00 in0.0 mm 0.00 in0.0 mm
06:40 AM 73.4°F23.0°C 72.8°F22.7°C 98% 5.4 mph SW8.7 kmh SW 8.5 mph13.7 kmh 29.53 in1000.0 mb 0.00 in0.0 mm 0.00 in0.0 mm 0.00 in0.0 mm
06:39 AM 73.4°F23.0°C 72.8°F22.7°C 98% 5.0 mph SW8.0 kmh SW 8.5 mph13.7 kmh 29.53 in1000.0 mb 0.00 in0.0 mm 0.00 in0.0 mm 0.00 in0.0 mm
06:38 AM 73.4°F23.0°C 72.8°F22.7°C 98% 4.8 mph SW7.7 kmh SW 8.5 mph13.7 kmh 29.53 in1000.0 mb 0.00 in0.0 mm 0.00 in0.0 mm 0.00 in0.0 mm
06:37 AM 73.4°F23.0°C 72.8°F22.7°C 98% 4.8 mph SW7.7 kmh SW 8.5 mph13.7 kmh 29.53 in1000.0 mb 0.00 in0.0 mm 0.00 in0.0 mm 0.00 in0.0 mm
06:36 AM 73.2°F22.9°C 72.6°F22.6°C 98% 4.6 mph SW7.4 kmh SW 8.5 mph13.7 kmh 29.53 in1000.0 mb 0.00 in0.0 mm 0.00 in0.0 mm 0.00 in0.0 mm
06:35 AM 73.2°F22.9°C 72.6°F22.6°C 98% 4.3 mph SSW6.9 kmh SSW 7.4 mph11.9 kmh 29.53 in1000.0 mb 0.00 in0.0 mm 0.00 in0.0 mm 0.00 in0.0 mm
06:34 AM 73.2°F22.9°C 72.6°F22.6°C 98% 4.4 mph SSW7.1 kmh SSW 7.4 mph11.9 kmh 29.53 in1000.0 mb 0.00 in0.0 mm 0.00 in0.0 mm 0.00 in0.0 mm
06:33 AM 73.2°F22.9°C 72.6°F22.6°C 98% 4.4 mph SSW7.1 kmh SSW 7.4 mph11.9 kmh 29.53 in1000.0 mb 0.00 in0.0 mm 0.00 in0.0 mm 0.00 in0.0 mm
06:32 AM 73.2°F22.9°C 72.6°F22.6°C 98% 4.5 mph SSW7.2 kmh SSW 7.4 mph11.9 kmh 29.53 in1000.0 mb 0.00 in0.0 mm 0.00 in0.0 mm 0.00 in0.0 mm
06:31 AM 73.2°F22.9°C 72.6°F22.6°C 98% 4.4 mph SSW7.1 kmh SSW 7.4 mph11.9 kmh 29.53 in1000.0 mb 0.00 in0.0 mm 0.00 in0.0 mm 0.00 in0.0 mm
06:30 AM 73.2°F22.9°C 72.6°F22.6°C 98% 4.0 mph SSW6.4 kmh SSW 6.3 mph10.1 kmh 29.53 in1000.0 mb 0.00 in0.0 mm 0.00 in0.0 mm 0.00 in0.0 mm
06:29 AM 73.0°F22.8°C 72.4°F22.4°C 98% 3.8 mph SSW6.1 kmh SSW 6.3 mph10.1 kmh 29.53 in1000.0 mb 0.00 in0.0 mm 0.00 in0.0 mm 0.00 in0.0 mm
06:28 AM 73.0°F22.8°C 72.4°F22.4°C 98% 3.7 mph SSW6.0 kmh SSW 6.3 mph10.1 kmh 29.53 in1000.0 mb 0.00 in0.0 mm 0.00 in0.0 mm 0.00 in0.0 mm
06:27 AM 73.0°F22.8°C 72.4°F22.4°C 98% 3.6 mph S5.8 kmh S 6.3 mph10.1 kmh 29.53 in1000.0 mb 0.00 in0.0 mm 0.00 in0.0 mm 0.00 in0.0 mm
06:26 AM 73.0°F22.8°C 72.4°F22.4°C 98% 3.3 mph SSW5.3 kmh SSW 6.3 mph10.1 kmh 29.53 in1000.0 mb 0.00 in0.0 mm 0.00 in0.0 mm 0.00 in0.0 mm
06:25 AM 73.0°F22.8°C 72.4°F22.4°C 98% 3.8 mph SSW6.1 kmh SSW 6.3 mph10.1 kmh 29.53 in1000.0 mb 0.00 in0.0 mm 0.00 in0.0 mm 0.00 in0.0 mm
06:24 AM 73.0°F22.8°C 72.4°F22.4°C 98% 4.1 mph SSW6.6 kmh SSW 7.6 mph12.2 kmh 29.53 in1000.0 mb 0.00 in0.0 mm 0.00 in0.0 mm 0.00 in0.0 mm
06:23 AM 73.0°F22.8°C 72.4°F22.4°C 98% 4.4 mph S7.1 kmh S 7.6 mph12.2 kmh 29.53 in1000.0 mb 0.00 in0.0 mm 0.00 in0.0 mm 0.00 in0.0 mm
06:22 AM 73.0°F22.8°C 72.4°F22.4°C 98% 4.6 mph S7.4 kmh S 7.6 mph12.2 kmh 29.53 in1000.0 mb 0.00 in0.0 mm 0.00 in0.0 mm 0.00 in0.0 mm
06:21 AM 73.0°F22.8°C 72.4°F22.4°C 98% 4.7 mph S7.6 kmh S 7.6 mph12.2 kmh 29.53 in1000.0 mb 0.00 in0.0 mm 0.00 in0.0 mm 0.00 in0.0 mm
06:20 AM 73.0°F22.8°C 72.4°F22.4°C 98% 5.1 mph S8.2 kmh S 7.6 mph12.2 kmh 29.56 in1001.0 mb 0.00 in0.0 mm 0.00 in0.0 mm 0.00 in0.0 mm
06:19 AM 73.0°F22.8°C 72.4°F22.4°C 98% 5.0 mph S8.0 kmh S 7.6 mph12.2 kmh 29.56 in1001.0 mb 0.00 in0.0 mm 0.00 in0.0 mm 0.00 in0.0 mm
06:18 AM 73.0°F22.8°C 72.4°F22.4°C 98% 5.7 mph SSW9.2 kmh SSW 10.5 mph16.9 kmh 29.56 in1001.0 mb 0.00 in0.0 mm 0.00 in0.0 mm 0.00 in0.0 mm
06:17 AM 73.0°F22.8°C 72.4°F22.4°C 98% 6.4 mph SW10.3 kmh SW 10.5 mph16.9 kmh 29.56 in1001.0 mb 0.00 in0.0 mm 0.00 in0.0 mm 0.00 in0.0 mm
06:16 AM 73.0°F22.8°C 72.4°F22.4°C 98% 6.2 mph SSW10.0 kmh SSW 10.5 mph16.9 kmh 29.56 in1001.0 mb 0.00 in0.0 mm 0.00 in0.0 mm 0.00 in0.0 mm
06:15 AM 73.0°F22.8°C 72.4°F22.4°C 98% 6.1 mph SW9.8 kmh SW 10.5 mph16.9 kmh 29.56 in1001.0 mb 0.00 in0.0 mm 0.00 in0.0 mm 0.00 in0.0 mm
06:14 AM 73.0°F22.8°C 72.4°F22.4°C 98% 5.7 mph SW9.2 kmh SW 10.5 mph16.9 kmh 29.56 in1001.0 mb 0.00 in0.0 mm 0.00 in0.0 mm 0.00 in0.0 mm
06:13 AM 73.0°F22.8°C 72.4°F22.4°C 98% 5.4 mph SW8.7 kmh SW 10.5 mph16.9 kmh 29.56 in1001.0 mb 0.00 in0.0 mm 0.00 in0.0 mm 0.00 in0.0 mm
06:12 AM 73.0°F22.8°C 72.4°F22.4°C 98% 5.4 mph SW8.7 kmh SW 10.5 mph16.9 kmh 29.56 in1001.0 mb 0.00 in0.0 mm 0.00 in0.0 mm 0.00 in0.0 mm
06:11 AM 73.0°F22.8°C 72.4°F22.4°C 98% 5.4 mph SW8.7 kmh SW 10.5 mph16.9 kmh 29.56 in1001.0 mb 0.00 in0.0 mm 0.00 in0.0 mm 0.00 in0.0 mm
06:10 AM 73.0°F22.8°C 72.4°F22.4°C 98% 5.4 mph SW8.7 kmh SW 10.5 mph16.9 kmh 29.56 in1001.0 mb 0.00 in0.0 mm 0.00 in0.0 mm 0.00 in0.0 mm
06:09 AM 73.0°F22.8°C 72.4°F22.4°C 98% 5.7 mph SW9.2 kmh SW 10.5 mph16.9 kmh 29.56 in1001.0 mb 0.00 in0.0 mm 0.00 in0.0 mm 0.00 in0.0 mm
06:08 AM 73.0°F22.8°C 72.4°F22.4°C 98% 5.2 mph SW8.4 kmh SW 10.5 mph16.9 kmh 29.56 in1001.0 mb 0.00 in0.0 mm 0.00 in0.0 mm 0.00 in0.0 mm
06:07 AM 73.0°F22.8°C 72.4°F22.4°C 98% 4.7 mph SSW7.6 kmh SSW 7.6 mph12.2 kmh 29.56 in1001.0 mb 0.00 in0.0 mm 0.00 in0.0 mm 0.00 in0.0 mm
06:06 AM 72.9°F22.7°C 72.3°F22.4°C 98% 4.6 mph SSW7.4 kmh SSW 7.6 mph12.2 kmh 29.56 in1001.0 mb 0.00 in0.0 mm 0.00 in0.0 mm 0.00 in0.0 mm
06:05 AM 72.9°F22.7°C 72.3°F22.4°C 98% 4.4 mph SW7.1 kmh SW 7.6 mph12.2 kmh 29.56 in1001.0 mb 0.00 in0.0 mm 0.00 in0.0 mm 0.00 in0.0 mm
06:04 AM 72.9°F22.7°C 72.3°F22.4°C 98% 4.6 mph SW7.4 kmh SW 7.6 mph12.2 kmh 29.56 in1001.0 mb 0.00 in0.0 mm 0.00 in0.0 mm 0.00 in0.0 mm
06:03 AM 72.9°F22.7°C 72.3°F22.4°C 98% 4.8 mph SW7.7 kmh SW 7.6 mph12.2 kmh 29.56 in1001.0 mb 0.00 in0.0 mm 0.00 in0.0 mm 0.00 in0.0 mm
06:02 AM 72.9°F22.7°C 72.3°F22.4°C 98% 4.3 mph SW6.9 kmh SW 7.4 mph11.9 kmh 29.56 in1001.0 mb 0.00 in0.0 mm 0.00 in0.0 mm 0.00 in0.0 mm
06:01 AM 72.9°F22.7°C 72.3°F22.4°C 98% 4.3 mph SW6.9 kmh SW 8.7 mph14.0 kmh 29.56 in1001.0 mb 0.00 in0.0 mm 0.00 in0.0 mm 0.00 in0.0 mm
06:00 AM 72.9°F22.7°C 72.3°F22.4°C 98% 4.3 mph SW6.9 kmh SW 8.7 mph14.0 kmh 29.56 in1001.0 mb 0.00 in0.0 mm 0.00 in0.0 mm 0.00 in0.0 mm
05:59 AM 72.7°F22.6°C 72.1°F22.3°C 98% 4.0 mph SW6.4 kmh SW 8.7 mph14.0 kmh 29.56 in1001.0 mb 0.00 in0.0 mm 0.00 in0.0 mm 0.00 in0.0 mm
05:58 AM 72.7°F22.6°C 72.1°F22.3°C 98% 3.7 mph SW6.0 kmh SW 8.7 mph14.0 kmh 29.56 in1001.0 mb 0.00 in0.0 mm 0.00 in0.0 mm 0.00 in0.0 mm
05:57 AM 72.9°F22.7°C 72.3°F22.4°C 98% 3.6 mph SW5.8 kmh SW 8.7 mph14.0 kmh 29.56 in1001.0 mb 0.00 in0.0 mm 0.00 in0.0 mm 0.00 in0.0 mm
05:56 AM 72.9°F22.7°C 72.3°F22.4°C 98% 3.5 mph SW5.6 kmh SW 8.7 mph14.0 kmh 29.56 in1001.0 mb 0.00 in0.0 mm 0.00 in0.0 mm 0.00 in0.0 mm
05:55 AM 72.7°F22.6°C 72.1°F22.3°C 98% 3.6 mph SW5.8 kmh SW 8.7 mph14.0 kmh 29.56 in1001.0 mb 0.00 in0.0 mm 0.00 in0.0 mm 0.00 in0.0 mm
05:54 AM 72.7°F22.6°C 72.1°F22.3°C 98% 3.4 mph SW5.5 kmh SW 8.7 mph14.0 kmh 29.56 in1001.0 mb 0.00 in0.0 mm 0.00 in0.0 mm 0.00 in0.0 mm
05:53 AM 72.7°F22.6°C 72.1°F22.3°C 98% 3.2 mph SW5.1 kmh SW 8.7 mph14.0 kmh 29.56 in1001.0 mb 0.00 in0.0 mm 0.00 in0.0 mm 0.00 in0.0 mm
05:52 AM 72.9°F22.7°C 72.3°F22.4°C 98% 3.2 mph SW5.1 kmh SW 8.7 mph14.0 kmh 29.56 in1001.0 mb 0.00 in0.0 mm 0.00 in0.0 mm 0.00 in0.0 mm
05:51 AM 72.9°F22.7°C 72.3°F22.4°C 98% 2.9 mph SW4.7 kmh SW 8.7 mph14.0 kmh 29.56 in1001.0 mb 0.00 in0.0 mm 0.00 in0.0 mm 0.00 in0.0 mm
05:50 AM 72.9°F22.7°C 72.3°F22.4°C 98% 2.5 mph SW4.0 kmh SW 8.7 mph14.0 kmh 29.56 in1001.0 mb 0.00 in0.0 mm 0.00 in0.0 mm 0.00 in0.0 mm
05:49 AM 72.9°F22.7°C 72.3°F22.4°C 98% 2.1 mph SSW3.4 kmh SSW 4.5 mph7.2 kmh 29.56 in1001.0 mb 0.00 in0.0 mm 0.00 in0.0 mm 0.00 in0.0 mm
05:48 AM 72.9°F22.7°C 72.3°F22.4°C 98% 2.4 mph SW3.9 kmh SW 6.5 mph10.5 kmh 29.56 in1001.0 mb 0.00 in0.0 mm 0.00 in0.0 mm 0.00 in0.0 mm
05:47 AM 72.9°F22.7°C 72.3°F22.4°C 98% 2.7 mph SW4.3 kmh SW 6.5 mph10.5 kmh 29.56 in1001.0 mb 0.00 in0.0 mm 0.00 in0.0 mm 0.00 in0.0 mm
05:46 AM 72.9°F22.7°C 72.3°F22.4°C 98% 2.4 mph SW3.9 kmh SW 6.5 mph10.5 kmh 29.56 in1001.0 mb 0.00 in0.0 mm 0.00 in0.0 mm 0.00 in0.0 mm
05:45 AM 72.9°F22.7°C 72.3°F22.4°C 98% 2.5 mph SW4.0 kmh SW 6.5 mph10.5 kmh 29.56 in1001.0 mb 0.00 in0.0 mm 0.00 in0.0 mm 0.00 in0.0 mm
05:44 AM 72.9°F22.7°C 72.3°F22.4°C 98% 2.7 mph SW4.3 kmh SW 6.5 mph10.5 kmh 29.56 in1001.0 mb 0.00 in0.0 mm 0.00 in0.0 mm 0.00 in0.0 mm
05:43 AM 72.9°F22.7°C 72.3°F22.4°C 98% 2.5 mph SW4.0 kmh SW 6.5 mph10.5 kmh 29.56 in1001.0 mb 0.00 in0.0 mm 0.00 in0.0 mm 0.00 in0.0 mm
05:42 AM 72.9°F22.7°C 72.3°F22.4°C 98% 2.9 mph SW4.7 kmh SW 8.5 mph13.7 kmh 29.56 in1001.0 mb 0.00 in0.0 mm 0.00 in0.0 mm 0.00 in0.0 mm
05:41 AM 72.9°F22.7°C 72.3°F22.4°C 98% 3.1 mph SW5.0 kmh SW 8.5 mph13.7 kmh 29.56 in1001.0 mb 0.00 in0.0 mm 0.00 in0.0 mm 0.00 in0.0 mm
05:40 AM 72.9°F22.7°C 72.3°F22.4°C 98% 3.1 mph SW5.0 kmh SW 8.5 mph13.7 kmh 29.56 in1001.0 mb 0.00 in0.0 mm 0.00 in0.0 mm 0.00 in0.0 mm
05:39 AM 72.9°F22.7°C 72.3°F22.4°C 98% 3.1 mph SW5.0 kmh SW 8.5 mph13.7 kmh 29.56 in1001.0 mb 0.00 in0.0 mm 0.00 in0.0 mm 0.00 in0.0 mm
05:38 AM 72.9°F22.7°C 72.3°F22.4°C 98% 3.1 mph SW5.0 kmh SW 8.5 mph13.7 kmh 29.56 in1001.0 mb 0.00 in0.0 mm 0.00 in0.0 mm 0.00 in0.0 mm
05:37 AM 72.9°F22.7°C 72.3°F22.4°C 98% 3.0 mph SSW4.8 kmh SSW 8.5 mph13.7 kmh 29.56 in1001.0 mb 0.00 in0.0 mm 0.00 in0.0 mm 0.00 in0.0 mm
05:36 AM 72.7°F22.6°C 72.1°F22.3°C 98% 3.2 mph SSW5.1 kmh SSW 8.5 mph13.7 kmh 29.56 in1001.0 mb 0.00 in0.0 mm 0.00 in0.0 mm 0.00 in0.0 mm
05:35 AM 72.7°F22.6°C 72.1°F22.3°C 98% 3.2 mph SSW5.1 kmh SSW 8.5 mph13.7 kmh 29.56 in1001.0 mb 0.00 in0.0 mm 0.00 in0.0 mm 0.00 in0.0 mm
05:34 AM 72.7°F22.6°C 72.1°F22.3°C 98% 3.1 mph SSW5.0 kmh SSW 8.5 mph13.7 kmh 29.56 in1001.0 mb 0.00 in0.0 mm 0.00 in0.0 mm 0.00 in0.0 mm
05:33 AM 72.7°F22.6°C 72.1°F22.3°C 98% 3.2 mph SSW5.1 kmh SSW 8.5 mph13.7 kmh 29.56 in1001.0 mb 0.00 in0.0 mm 0.00 in0.0 mm 0.00 in0.0 mm
05:32 AM 72.7°F22.6°C 72.1°F22.3°C 98% 2.8 mph S4.5 kmh S 4.5 mph7.2 kmh 29.56 in1001.0 mb 0.00 in0.0 mm 0.00 in0.0 mm 0.00 in0.0 mm
05:31 AM 72.7°F22.6°C 72.1°F22.3°C 98% 2.9 mph S4.7 kmh S 4.5 mph7.2 kmh 29.56 in1001.0 mb 0.00 in0.0 mm 0.00 in0.0 mm 0.00 in0.0 mm
05:30 AM 72.7°F22.6°C 72.1°F22.3°C 98% 2.4 mph SSW3.9 kmh SSW 4.5 mph7.2 kmh 29.56 in1001.0 mb 0.00 in0.0 mm 0.00 in0.0 mm 0.00 in0.0 mm
05:29 AM 72.7°F22.6°C 72.1°F22.3°C 98% 2.3 mph SSW3.7 kmh SSW 4.5 mph7.2 kmh 29.56 in1001.0 mb 0.00 in0.0 mm 0.00 in0.0 mm 0.00 in0.0 mm
05:28 AM 72.7°F22.6°C 72.1°F22.3°C 98% 2.2 mph S3.5 kmh S 4.5 mph7.2 kmh 29.56 in1001.0 mb 0.00 in0.0 mm 0.00 in0.0 mm 0.00 in0.0 mm
05:27 AM 72.7°F22.6°C 72.1°F22.3°C 98% 1.9 mph SSW3.1 kmh SSW 4.5 mph7.2 kmh 29.56 in1001.0 mb 0.00 in0.0 mm 0.00 in0.0 mm 0.00 in0.0 mm
05:26 AM 72.7°F22.6°C 72.1°F22.3°C 98% 2.0 mph SSW3.2 kmh SSW 4.5 mph7.2 kmh 29.56 in1001.0 mb 0.00 in0.0 mm 0.00 in0.0 mm 0.00 in0.0 mm
05:25 AM 72.7°F22.6°C 72.1°F22.3°C 98% 1.7 mph SSW2.7 kmh SSW 4.5 mph7.2 kmh 29.56 in1001.0 mb 0.00 in0.0 mm 0.00 in0.0 mm 0.00 in0.0 mm
05:24 AM 72.5°F22.5°C 71.9°F22.2°C 98% 1.6 mph SSW2.6 kmh SSW 3.8 mph6.1 kmh 29.56 in1001.0 mb 0.00 in0.0 mm 0.00 in0.0 mm 0.00 in0.0 mm
05:23 AM 72.5°F22.5°C 71.9°F22.2°C 98% 1.6 mph SSW2.6 kmh SSW 3.8 mph6.1 kmh 29.56 in1001.0 mb 0.00 in0.0 mm 0.00 in0.0 mm 0.00 in0.0 mm
05:22 AM 72.5°F22.5°C 71.9°F22.2°C 98% 1.5 mph SW2.4 kmh SW 3.8 mph6.1 kmh 29.56 in1001.0 mb 0.00 in0.0 mm 0.00 in0.0 mm 0.00 in0.0 mm
05:21 AM 72.5°F22.5°C 71.9°F22.2°C 98% 1.6 mph SSW2.6 kmh SSW 6.0 mph9.7 kmh 29.56 in1001.0 mb 0.00 in0.0 mm 0.00 in0.0 mm 0.00 in0.0 mm
05:20 AM 72.5°F22.5°C 71.9°F22.2°C 98% 1.8 mph S2.9 kmh S 6.0 mph9.7 kmh 29.56 in1001.0 mb 0.00 in0.0 mm 0.00 in0.0 mm 0.00 in0.0 mm
05:19 AM 72.5°F22.5°C 71.9°F22.2°C 98% 1.8 mph S2.9 kmh S 6.0 mph9.7 kmh 29.56 in1001.0 mb 0.00 in0.0 mm 0.00 in0.0 mm 0.00 in0.0 mm
05:18 AM 72.5°F22.5°C 71.9°F22.2°C 98% 1.8 mph S2.9 kmh S 6.0 mph9.7 kmh 29.56 in1001.0 mb 0.00 in0.0 mm 0.00 in0.0 mm 0.00 in0.0 mm
05:17 AM 72.5°F22.5°C 71.9°F22.2°C 98% 1.7 mph S2.7 kmh S 6.0 mph9.7 kmh 29.56 in1001.0 mb 0.00 in0.0 mm 0.00 in0.0 mm 0.00 in0.0 mm
05:16 AM 72.5°F22.5°C 71.9°F22.2°C 98% 1.9 mph SSW3.1 kmh SSW 6.0 mph9.7 kmh 29.56 in1001.0 mb 0.00 in0.0 mm 0.00 in0.0 mm 0.00 in0.0 mm
05:15 AM 72.5°F22.5°C 71.9°F22.2°C 98% 2.0 mph S3.2 kmh S 6.0 mph9.7 kmh 29.56 in1001.0 mb 0.00 in0.0 mm 0.00 in0.0 mm 0.00 in0.0 mm
05:14 AM 72.5°F22.5°C 71.9°F22.2°C 98% 2.0 mph S3.2 kmh S 6.0 mph9.7 kmh 29.56 in1001.0 mb 0.00 in0.0 mm 0.00 in0.0 mm 0.00 in0.0 mm
05:13 AM 72.5°F22.5°C 71.9°F22.2°C 98% 2.1 mph S3.4 kmh S 6.0 mph9.7 kmh 29.56 in1001.0 mb 0.00 in0.0 mm 0.00 in0.0 mm 0.00 in0.0 mm
05:12 AM 72.5°F22.5°C 71.9°F22.2°C 98% 2.1 mph S3.4 kmh S 6.0 mph9.7 kmh 29.56 in1001.0 mb 0.00 in0.0 mm 0.00 in0.0 mm 0.00 in0.0 mm
05:11 AM 72.5°F22.5°C 71.9°F22.2°C 98% 2.0 mph S3.2 kmh S 6.0 mph9.7 kmh 29.56 in1001.0 mb 0.00 in0.0 mm 0.00 in0.0 mm 0.00 in0.0 mm
05:10 AM 72.5°F22.5°C 71.9°F22.2°C 98% 2.0 mph S3.2 kmh S 5.6 mph9.0 kmh 29.56 in1001.0 mb 0.00 in0.0 mm 0.00 in0.0 mm 0.00 in0.0 mm
05:09 AM 72.3°F22.4°C 71.7°F22.1°C 98% 2.6 mph S4.2 kmh S 5.6 mph9.0 kmh 29.56 in1001.0 mb 0.00 in0.0 mm 0.00 in0.0 mm 0.00 in0.0 mm
05:08 AM 72.3°F22.4°C 71.7°F22.1°C 98% 2.8 mph S4.5 kmh S 5.6 mph9.0 kmh 29.56 in1001.0 mb 0.00 in0.0 mm 0.00 in0.0 mm 0.00 in0.0 mm
05:07 AM 72.3°F22.4°C 71.7°F22.1°C 98% 3.0 mph S4.8 kmh S 5.6 mph9.0 kmh 29.56 in1001.0 mb 0.00 in0.0 mm 0.00 in0.0 mm 0.00 in0.0 mm
05:06 AM 72.3°F22.4°C 71.7°F22.1°C 98% 3.0 mph S4.8 kmh S 5.6 mph9.0 kmh 29.56 in1001.0 mb 0.00 in0.0 mm 0.00 in0.0 mm 0.00 in0.0 mm
05:05 AM 72.3°F22.4°C 71.7°F22.1°C 98% 3.3 mph SSW5.3 kmh SSW 5.6 mph9.0 kmh 29.56 in1001.0 mb 0.00 in0.0 mm 0.00 in0.0 mm 0.00 in0.0 mm
05:04 AM 72.3°F22.4°C 71.7°F22.1°C 98% 3.2 mph SSW5.1 kmh SSW 5.6 mph9.0 kmh 29.56 in1001.0 mb 0.00 in0.0 mm 0.00 in0.0 mm 0.00 in0.0 mm
05:03 AM 72.3°F22.4°C 71.7°F22.1°C 98% 3.0 mph SSW4.8 kmh SSW 5.6 mph9.0 kmh 29.56 in1001.0 mb 0.00 in0.0 mm 0.00 in0.0 mm 0.00 in0.0 mm
05:02 AM 72.3°F22.4°C 71.7°F22.1°C 98% 3.0 mph SSW4.8 kmh SSW 5.6 mph9.0 kmh 29.56 in1001.0 mb 0.00 in0.0 mm 0.00 in0.0 mm 0.00 in0.0 mm
05:01 AM 72.3°F22.4°C 71.7°F22.1°C 98% 3.0 mph SSW4.8 kmh SSW 5.6 mph9.0 kmh 29.56 in1001.0 mb 0.00 in0.0 mm 0.00 in0.0 mm 0.00 in0.0 mm
05:00 AM 72.3°F22.4°C 71.7°F22.1°C 98% 2.9 mph SW4.7 kmh SW 5.6 mph9.0 kmh 29.56 in1001.0 mb 0.00 in0.0 mm 0.00 in0.0 mm 0.00 in0.0 mm
04:59 AM 72.3°F22.4°C 71.7°F22.1°C 98% 2.8 mph SW4.5 kmh SW 5.6 mph9.0 kmh 29.56 in1001.0 mb 0.00 in0.0 mm 0.00 in0.0 mm 0.00 in0.0 mm
04:58 AM 72.3°F22.4°C 71.7°F22.1°C 98% 2.8 mph SW4.5 kmh SW 5.6 mph9.0 kmh 29.56 in1001.0 mb 0.00 in0.0 mm 0.00 in0.0 mm 0.00 in0.0 mm
04:57 AM 72.3°F22.4°C 71.7°F22.1°C 98% 2.6 mph SW4.2 kmh SW 5.6 mph9.0 kmh 29.56 in1001.0 mb 0.00 in0.0 mm 0.00 in0.0 mm 0.00 in0.0 mm
04:56 AM 72.3°F22.4°C 71.7°F22.1°C 98% 2.7 mph SW4.3 kmh SW 5.6 mph9.0 kmh 29.56 in1001.0 mb 0.00 in0.0 mm 0.00 in0.0 mm 0.00 in0.0 mm
04:55 AM 72.3°F22.4°C 71.7°F22.1°C 98% 2.2 mph SW3.5 kmh SW 4.3 mph6.9 kmh 29.56 in1001.0 mb 0.00 in0.0 mm 0.00 in0.0 mm 0.00 in0.0 mm
04:54 AM 72.3°F22.4°C 71.7°F22.1°C 98% 2.1 mph SW3.4 kmh SW 4.3 mph6.9 kmh 29.56 in1001.0 mb 0.00 in0.0 mm 0.00 in0.0 mm 0.00 in0.0 mm
04:53 AM 72.3°F22.4°C 71.7°F22.1°C 98% 2.4 mph SW3.9 kmh SW 4.3 mph6.9 kmh 29.56 in1001.0 mb 0.00 in0.0 mm 0.00 in0.0 mm 0.00 in0.0 mm
04:52 AM 72.3°F22.4°C 71.7°F22.1°C 98% 2.6 mph SSW4.2 kmh SSW 4.3 mph6.9 kmh 29.56 in1001.0 mb 0.00 in0.0 mm 0.00 in0.0 mm 0.00 in0.0 mm
04:51 AM 72.3°F22.4°C 71.7°F22.1°C 98% 2.7 mph SSW4.3 kmh SSW 5.8 mph9.3 kmh 29.56 in1001.0 mb 0.00 in0.0 mm 0.00 in0.0 mm 0.00 in0.0 mm
04:50 AM 72.3°F22.4°C 71.7°F22.1°C 98% 2.7 mph SSW4.3 kmh SSW 5.8 mph9.3 kmh 29.56 in1001.0 mb 0.00 in0.0 mm 0.00 in0.0 mm 0.00 in0.0 mm
04:49 AM 72.3°F22.4°C 71.7°F22.1°C 98% 2.7 mph SSW4.3 kmh SSW 5.8 mph9.3 kmh 29.56 in1001.0 mb 0.00 in0.0 mm 0.00 in0.0 mm 0.00 in0.0 mm
04:48 AM 72.3°F22.4°C 71.7°F22.1°C 98% 2.7 mph S4.3 kmh S 5.8 mph9.3 kmh 29.56 in1001.0 mb 0.00 in0.0 mm 0.00 in0.0 mm 0.00 in0.0 mm
04:47 AM 72.3°F22.4°C 71.7°F22.1°C 98% 2.7 mph S4.3 kmh S 5.8 mph9.3 kmh 29.56 in1001.0 mb 0.00 in0.0 mm 0.00 in0.0 mm 0.00 in0.0 mm
04:46 AM 72.3°F22.4°C 71.7°F22.1°C 98% 2.7 mph S4.3 kmh S 5.8 mph9.3 kmh 29.56 in1001.0 mb 0.00 in0.0 mm 0.00 in0.0 mm 0.00 in0.0 mm
04:45 AM 72.3°F22.4°C 71.7°F22.1°C 98% 2.6 mph S4.2 kmh S 5.8 mph9.3 kmh 29.56 in1001.0 mb 0.00 in0.0 mm 0.00 in0.0 mm 0.00 in0.0 mm
04:44 AM 72.3°F22.4°C 71.7°F22.1°C 98% 2.8 mph SSW4.5 kmh SSW 5.8 mph9.3 kmh 29.56 in1001.0 mb 0.00 in0.0 mm 0.00 in0.0 mm 0.00 in0.0 mm
04:43 AM 72.3°F22.4°C 71.7°F22.1°C 98% 2.8 mph SSW4.5 kmh SSW 5.8 mph9.3 kmh 29.56 in1001.0 mb 0.00 in0.0 mm 0.00 in0.0 mm 0.00 in0.0 mm
04:42 AM 72.1°F22.3°C 71.5°F21.9°C 98% 2.7 mph SSW4.3 kmh SSW 6.5 mph10.5 kmh 29.56 in1001.0 mb 0.00 in0.0 mm 0.00 in0.0 mm 0.00 in0.0 mm
04:41 AM 72.1°F22.3°C 71.5°F21.9°C 98% 2.4 mph SSW3.9 kmh SSW 6.5 mph10.5 kmh 29.56 in1001.0 mb 0.00 in0.0 mm 0.00 in0.0 mm 0.00 in0.0 mm
04:40 AM 72.1°F22.3°C 71.5°F21.9°C 98% 2.1 mph SW3.4 kmh SW 6.5 mph10.5 kmh 29.56 in1001.0 mb 0.00 in0.0 mm 0.00 in0.0 mm 0.00 in0.0 mm
04:39 AM 72.1°F22.3°C 71.5°F21.9°C 98% 1.9 mph SW3.1 kmh SW 6.5 mph10.5 kmh 29.56 in1001.0 mb 0.00 in0.0 mm 0.00 in0.0 mm 0.00 in0.0 mm
04:38 AM 72.1°F22.3°C 71.5°F21.9°C 98% 1.9 mph SW3.1 kmh SW 6.5 mph10.5 kmh 29.56 in1001.0 mb 0.00 in0.0 mm 0.00 in0.0 mm 0.00 in0.0 mm
04:37 AM 72.0°F22.2°C 71.4°F21.9°C 98% 2.0 mph SW3.2 kmh SW 6.5 mph10.5 kmh 29.56 in1001.0 mb 0.00 in0.0 mm 0.00 in0.0 mm 0.00 in0.0 mm
04:36 AM 72.0°F22.2°C 71.4°F21.9°C 98% 1.9 mph SW3.1 kmh SW 6.5 mph10.5 kmh 29.56 in1001.0 mb 0.00 in0.0 mm 0.00 in0.0 mm 0.00 in0.0 mm
04:35 AM 72.0°F22.2°C 71.4°F21.9°C 98% 2.3 mph SW3.7 kmh SW 6.5 mph10.5 kmh 29.56 in1001.0 mb 0.00 in0.0 mm 0.00 in0.0 mm 0.00 in0.0 mm
04:34 AM 72.0°F22.2°C 71.4°F21.9°C 98% 2.3 mph SW3.7 kmh SW 6.5 mph10.5 kmh 29.56 in1001.0 mb 0.00 in0.0 mm 0.00 in0.0 mm 0.00 in0.0 mm
04:33 AM 72.0°F22.2°C 71.4°F21.9°C 98% 2.5 mph SW4.0 kmh SW 7.6 mph12.2 kmh 29.56 in1001.0 mb 0.00 in0.0 mm 0.00 in0.0 mm 0.00 in0.0 mm
04:32 AM 72.0°F22.2°C 71.4°F21.9°C 98% 2.2 mph SSW3.5 kmh SSW 7.6 mph12.2 kmh 29.56 in1001.0 mb 0.00 in0.0 mm 0.00 in0.0 mm 0.00 in0.0 mm
04:31 AM 72.0°F22.2°C 71.4°F21.9°C 98% 2.8 mph SSW4.5 kmh SSW 7.6 mph12.2 kmh 29.56 in1001.0 mb 0.00 in0.0 mm 0.00 in0.0 mm 0.00 in0.0 mm
04:30 AM 72.1°F22.3°C 71.5°F21.9°C 98% 3.2 mph SSW5.1 kmh SSW 7.6 mph12.2 kmh 29.56 in1001.0 mb 0.00 in0.0 mm 0.00 in0.0 mm 0.00 in0.0 mm
04:29 AM 72.1°F22.3°C 71.5°F21.9°C 98% 3.7 mph S6.0 kmh S 8.7 mph14.0 kmh 29.56 in1001.0 mb 0.00 in0.0 mm 0.00 in0.0 mm 0.00 in0.0 mm
04:28 AM 72.1°F22.3°C 71.5°F21.9°C 98% 3.9 mph S6.3 kmh S 8.7 mph14.0 kmh 29.56 in1001.0 mb 0.00 in0.0 mm 0.00 in0.0 mm 0.00 in0.0 mm
04:27 AM 72.1°F22.3°C 71.5°F21.9°C 98% 3.8 mph SSW6.1 kmh SSW 8.7 mph14.0 kmh 29.56 in1001.0 mb 0.00 in0.0 mm 0.00 in0.0 mm 0.00 in0.0 mm
04:26 AM 72.1°F22.3°C 71.5°F21.9°C 98% 3.7 mph SSW6.0 kmh SSW 8.7 mph14.0 kmh 29.56 in1001.0 mb 0.00 in0.0 mm 0.00 in0.0 mm 0.00 in0.0 mm
04:25 AM 72.1°F22.3°C 71.5°F21.9°C 98% 3.8 mph SSW6.1 kmh SSW 8.7 mph14.0 kmh 29.56 in1001.0 mb 0.00 in0.0 mm 0.00 in0.0 mm 0.00 in0.0 mm
04:24 AM 72.1°F22.3°C 71.5°F21.9°C 98% 3.9 mph SSW6.3 kmh SSW 8.7 mph14.0 kmh 29.56 in1001.0 mb 0.00 in0.0 mm 0.00 in0.0 mm 0.00 in0.0 mm
04:23 AM 72.1°F22.3°C 71.5°F21.9°C 98% 3.7 mph SSW6.0 kmh SSW 8.7 mph14.0 kmh 29.56 in1001.0 mb 0.00 in0.0 mm 0.00 in0.0 mm 0.00 in0.0 mm
04:22 AM 72.1°F22.3°C 71.5°F21.9°C 98% 3.8 mph SSW6.1 kmh SSW 8.7 mph14.0 kmh 29.56 in1001.0 mb 0.00 in0.0 mm 0.00 in0.0 mm 0.00 in0.0 mm
04:21 AM 72.0°F22.2°C 71.4°F21.9°C 98% 3.6 mph SSW5.8 kmh SSW 8.7 mph14.0 kmh 29.56 in1001.0 mb 0.00 in0.0 mm 0.00 in0.0 mm 0.00 in0.0 mm
04:20 AM 72.0°F22.2°C 71.4°F21.9°C 98% 3.3 mph SSW5.3 kmh SSW 8.7 mph14.0 kmh 29.53 in1000.0 mb 0.00 in0.0 mm 0.00 in0.0 mm 0.00 in0.0 mm
04:19 AM 72.0°F22.2°C 71.4°F21.9°C 98% 2.8 mph SSW4.5 kmh SSW 5.6 mph9.0 kmh 29.53 in1000.0 mb 0.00 in0.0 mm 0.00 in0.0 mm 0.00 in0.0 mm
04:18 AM 72.0°F22.2°C 71.4°F21.9°C 98% 3.0 mph SSW4.8 kmh SSW 6.0 mph9.7 kmh 29.53 in1000.0 mb 0.00 in0.0 mm 0.00 in0.0 mm 0.00 in0.0 mm
04:17 AM 72.0°F22.2°C 71.4°F21.9°C 98% 3.0 mph S4.8 kmh S 6.0 mph9.7 kmh 29.53 in1000.0 mb 0.00 in0.0 mm 0.00 in0.0 mm 0.00 in0.0 mm
04:16 AM 72.0°F22.2°C 71.4°F21.9°C 98% 2.9 mph S4.7 kmh S 6.0 mph9.7 kmh 29.53 in1000.0 mb 0.00 in0.0 mm 0.00 in0.0 mm 0.00 in0.0 mm
04:15 AM 72.1°F22.3°C 71.5°F21.9°C 98% 2.7 mph S4.3 kmh S 6.0 mph9.7 kmh 29.53 in1000.0 mb 0.00 in0.0 mm 0.00 in0.0 mm 0.00 in0.0 mm
04:14 AM 72.1°F22.3°C 71.5°F21.9°C 98% 2.6 mph SSE4.2 kmh SSE 6.0 mph9.7 kmh 29.53 in1000.0 mb 0.00 in0.0 mm 0.00 in0.0 mm 0.00 in0.0 mm
04:13 AM 72.1°F22.3°C 71.5°F21.9°C 98% 2.7 mph SSE4.3 kmh SSE 6.0 mph9.7 kmh 29.53 in1000.0 mb 0.00 in0.0 mm 0.00 in0.0 mm 0.00 in0.0 mm
04:12 AM 72.1°F22.3°C 71.5°F21.9°C 98% 2.7 mph SSE4.3 kmh SSE 6.0 mph9.7 kmh 29.53 in1000.0 mb 0.00 in0.0 mm 0.00 in0.0 mm 0.00 in0.0 mm
04:11 AM 72.1°F22.3°C 71.5°F21.9°C 98% 2.7 mph SSE4.3 kmh SSE 6.0 mph9.7 kmh 29.53 in1000.0 mb 0.00 in0.0 mm 0.00 in0.0 mm 0.00 in0.0 mm
04:10 AM 72.1°F22.3°C 71.5°F21.9°C 98% 2.7 mph SSE4.3 kmh SSE 6.0 mph9.7 kmh 29.53 in1000.0 mb 0.00 in0.0 mm 0.00 in0.0 mm 0.00 in0.0 mm
04:09 AM 72.1°F22.3°C 71.5°F21.9°C 98% 3.1 mph SSE5.0 kmh SSE 6.0 mph9.7 kmh 29.50 in999.0 mb 0.00 in0.0 mm 0.00 in0.0 mm 0.00 in0.0 mm
04:08 AM 72.1°F22.3°C 71.5°F21.9°C 98% 3.1 mph SE5.0 kmh SE 6.0 mph9.7 kmh 29.50 in999.0 mb 0.00 in0.0 mm 0.00 in0.0 mm 0.00 in0.0 mm
04:07 AM 72.1°F22.3°C 71.5°F21.9°C 98% 2.7 mph SE4.3 kmh SE 3.6 mph5.8 kmh 29.50 in999.0 mb 0.00 in0.0 mm 0.00 in0.0 mm 0.00 in0.0 mm
04:06 AM 72.1°F22.3°C 71.5°F21.9°C 98% 2.9 mph SE4.7 kmh SE 3.6 mph5.8 kmh 29.50 in999.0 mb 0.00 in0.0 mm 0.00 in0.0 mm 0.00 in0.0 mm
04:05 AM 72.1°F22.3°C 71.5°F21.9°C 98% 2.9 mph SE4.7 kmh SE 3.6 mph5.8 kmh 29.50 in999.0 mb 0.00 in0.0 mm 0.00 in0.0 mm 0.00 in0.0 mm
04:04 AM 72.0°F22.2°C 71.4°F21.9°C 98% 2.7 mph SE4.3 kmh SE 3.6 mph5.8 kmh 29.50 in999.0 mb 0.00 in0.0 mm 0.00 in0.0 mm 0.00 in0.0 mm
04:03 AM 72.0°F22.2°C 71.4°F21.9°C 98% 2.5 mph SE4.0 kmh SE 3.6 mph5.8 kmh 29.50 in999.0 mb 0.00 in0.0 mm 0.00 in0.0 mm 0.00 in0.0 mm
04:02 AM 72.0°F22.2°C 71.4°F21.9°C 98% 2.1 mph SE3.4 kmh SE 3.6 mph5.8 kmh 29.50 in999.0 mb 0.00 in0.0 mm 0.00 in0.0 mm 0.00 in0.0 mm
04:01 AM 72.0°F22.2°C 71.4°F21.9°C 98% 2.0 mph SE3.2 kmh SE 3.6 mph5.8 kmh 29.50 in999.0 mb 0.00 in0.0 mm 0.00 in0.0 mm 0.00 in0.0 mm
04:00 AM 72.0°F22.2°C 71.4°F21.9°C 98% 1.6 mph SE2.6 kmh SE 3.1 mph5.0 kmh 29.50 in999.0 mb 0.00 in0.0 mm 0.00 in0.0 mm 0.00 in0.0 mm
03:59 AM 72.0°F22.2°C 71.4°F21.9°C 98% 1.3 mph SE2.1 kmh SE 3.1 mph5.0 kmh 29.50 in999.0 mb 0.00 in0.0 mm 0.00 in0.0 mm 0.00 in0.0 mm
03:58 AM 72.0°F22.2°C 71.4°F21.9°C 98% 1.1 mph SE1.8 kmh SE 3.1 mph5.0 kmh 29.50 in999.0 mb 0.00 in0.0 mm 0.00 in0.0 mm 0.00 in0.0 mm
03:57 AM 72.0°F22.2°C 71.4°F21.9°C 98% 0.7 mph SSE1.1 kmh SSE 3.1 mph5.0 kmh 29.50 in999.0 mb 0.00 in0.0 mm 0.00 in0.0 mm 0.00 in0.0 mm
03:56 AM 72.0°F22.2°C 71.4°F21.9°C 98% 0.5 mph S0.8 kmh S 2.5 mph4.0 kmh 29.50 in999.0 mb 0.00 in0.0 mm 0.00 in0.0 mm 0.00 in0.0 mm
03:55 AM 71.8°F22.1°C 71.2°F21.8°C 98% 0.3 mph NW0.5 kmh NW 1.3 mph2.1 kmh 29.50 in999.0 mb 0.00 in0.0 mm 0.00 in0.0 mm 0.00 in0.0 mm
03:54 AM 71.8°F22.1°C 71.2°F21.8°C 98% 0.3 mph NW0.5 kmh NW 1.1 mph1.8 kmh 29.50 in999.0 mb 0.00 in0.0 mm 0.00 in0.0 mm 0.00 in0.0 mm
03:53 AM 71.8°F22.1°C 71.2°F21.8°C 98% 0.1 mph NW0.2 kmh NW 1.1 mph1.8 kmh 29.50 in999.0 mb 0.00 in0.0 mm 0.00 in0.0 mm 0.00 in0.0 mm
03:52 AM 71.8°F22.1°C 71.2°F21.8°C 98% 0.1 mph NW0.2 kmh NW 1.1 mph1.8 kmh 29.50 in999.0 mb 0.00 in0.0 mm 0.00 in0.0 mm 0.00 in0.0 mm
03:51 AM 71.8°F22.1°C 71.2°F21.8°C 98% 0.2 mph NW0.3 kmh NW 1.1 mph1.8 kmh 29.50 in999.0 mb 0.00 in0.0 mm 0.00 in0.0 mm 0.00 in0.0 mm
03:50 AM 71.8°F22.1°C 71.2°F21.8°C 98% 0.2 mph NW0.3 kmh NW 1.1 mph1.8 kmh 29.53 in1000.0 mb 0.00 in0.0 mm 0.00 in0.0 mm 0.00 in0.0 mm
03:49 AM 71.8°F22.1°C 71.2°F21.8°C 98% 0.2 mph NW0.3 kmh NW 1.1 mph1.8 kmh 29.53 in1000.0 mb 0.00 in0.0 mm 0.00 in0.0 mm 0.00 in0.0 mm
03:48 AM 71.8°F22.1°C 71.2°F21.8°C 98% 0.2 mph NW0.3 kmh NW 1.1 mph1.8 kmh 29.53 in1000.0 mb 0.00 in0.0 mm 0.00 in0.0 mm 0.00 in0.0 mm
03:47 AM 71.8°F22.1°C 71.2°F21.8°C 98% 0.2 mph NW0.3 kmh NW 1.1 mph1.8 kmh 29.53 in1000.0 mb 0.00 in0.0 mm 0.00 in0.0 mm 0.00 in0.0 mm
03:46 AM 71.8°F22.1°C 71.2°F21.8°C 98% 0.2 mph NW0.3 kmh NW 1.1 mph1.8 kmh 29.53 in1000.0 mb 0.00 in0.0 mm 0.00 in0.0 mm 0.00 in0.0 mm
03:45 AM 72.0°F22.2°C 71.4°F21.9°C 98% 0.1 mph NW0.2 kmh NW 1.1 mph1.8 kmh 29.53 in1000.0 mb 0.00 in0.0 mm 0.00 in0.0 mm 0.00 in0.0 mm
03:44 AM 72.0°F22.2°C 71.4°F21.9°C 98% 0.1 mph NW0.2 kmh NW 1.1 mph1.8 kmh 29.53 in1000.0 mb 0.00 in0.0 mm 0.00 in0.0 mm 0.00 in0.0 mm
03:43 AM 72.0°F22.2°C 71.4°F21.9°C 98% 0.1 mph NW0.2 kmh NW 1.1 mph1.8 kmh 29.53 in1000.0 mb 0.00 in0.0 mm 0.00 in0.0 mm 0.00 in0.0 mm
03:42 AM 72.0°F22.2°C 71.4°F21.9°C 98% 0.1 mph NW0.2 kmh NW 1.1 mph1.8 kmh 29.53 in1000.0 mb 0.00 in0.0 mm 0.00 in0.0 mm 0.00 in0.0 mm
03:41 AM 72.0°F22.2°C 71.4°F21.9°C 98% Calm Calm -- 29.53 in1000.0 mb 0.00 in0.0 mm 0.00 in0.0 mm 0.00 in0.0 mm
03:40 AM 72.0°F22.2°C 71.4°F21.9°C 98% 0.1 mph NW0.2 kmh NW 1.6 mph2.6 kmh 29.53 in1000.0 mb 0.00 in0.0 mm 0.00 in0.0 mm 0.00 in0.0 mm
03:39 AM 72.0°F22.2°C 71.4°F21.9°C 98% 0.1 mph NW0.2 kmh NW 1.6 mph2.6 kmh 29.53 in1000.0 mb 0.00 in0.0 mm 0.00 in0.0 mm 0.00 in0.0 mm
03:38 AM 72.0°F22.2°C 71.4°F21.9°C 98% 0.3 mph NW0.5 kmh NW 3.6 mph5.8 kmh 29.53 in1000.0 mb 0.00 in0.0 mm 0.00 in0.0 mm 0.00 in0.0 mm
03:37 AM 71.8°F22.1°C 71.2°F21.8°C 98% 0.3 mph NW0.5 kmh NW 3.6 mph5.8 kmh 29.53 in1000.0 mb 0.00 in0.0 mm 0.00 in0.0 mm 0.00 in0.0 mm
03:36 AM 71.8°F22.1°C 71.2°F21.8°C 98% 0.4 mph NW0.6 kmh NW 3.6 mph5.8 kmh 29.53 in1000.0 mb 0.00 in0.0 mm 0.00 in0.0 mm 0.00 in0.0 mm
03:35 AM 72.0°F22.2°C 71.4°F21.9°C 98% 0.4 mph NW0.6 kmh NW 3.6 mph5.8 kmh 29.56 in1001.0 mb 0.00 in0.0 mm 0.00 in0.0 mm 0.00 in0.0 mm
03:34 AM 72.0°F22.2°C 71.4°F21.9°C 98% 0.4 mph NW0.6 kmh NW 3.6 mph5.8 kmh 29.56 in1001.0 mb 0.00 in0.0 mm 0.00 in0.0 mm 0.00 in0.0 mm
03:33 AM 72.0°F22.2°C 71.4°F21.9°C 98% 0.7 mph NW1.1 kmh NW 3.6 mph5.8 kmh 29.56 in1001.0 mb 0.00 in0.0 mm 0.00 in0.0 mm 0.00 in0.0 mm
03:32 AM 72.0°F22.2°C 71.4°F21.9°C 98% 0.8 mph WNW1.3 kmh WNW 3.6 mph5.8 kmh 29.56 in1001.0 mb 0.00 in0.0 mm 0.00 in0.0 mm 0.00 in0.0 mm
03:31 AM 72.0°F22.2°C 71.4°F21.9°C 98% 1.1 mph WNW1.8 kmh WNW 4.0 mph6.4 kmh 29.56 in1001.0 mb 0.00 in0.0 mm 0.00 in0.0 mm 0.00 in0.0 mm
03:30 AM 72.0°F22.2°C 71.4°F21.9°C 98% 1.4 mph WNW2.3 kmh WNW 4.0 mph6.4 kmh 29.56 in1001.0 mb 0.00 in0.0 mm 0.00 in0.0 mm 0.00 in0.0 mm
03:29 AM 72.0°F22.2°C 71.4°F21.9°C 98% 1.6 mph WNW2.6 kmh WNW 4.0 mph6.4 kmh 29.56 in1001.0 mb 0.00 in0.0 mm 0.00 in0.0 mm 0.00 in0.0 mm
03:28 AM 72.0°F22.2°C 71.4°F21.9°C 98% 1.7 mph W2.7 kmh W 4.0 mph6.4 kmh 29.56 in1001.0 mb 0.00 in0.0 mm 0.00 in0.0 mm 0.00 in0.0 mm
03:27 AM 72.0°F22.2°C 71.4°F21.9°C 98% 1.9 mph W3.1 kmh W 4.0 mph6.4 kmh 29.56 in1001.0 mb 0.00 in0.0 mm 0.00 in0.0 mm 0.00 in0.0 mm
03:26 AM 72.0°F22.2°C 71.4°F21.9°C 98% 2.3 mph W3.7 kmh W 5.6 mph9.0 kmh 29.56 in1001.0 mb 0.00 in0.0 mm 0.00 in0.0 mm 0.00 in0.0 mm
03:25 AM 72.0°F22.2°C 71.4°F21.9°C 98% 2.7 mph W4.3 kmh W 5.6 mph9.0 kmh 29.56 in1001.0 mb 0.00 in0.0 mm 0.00 in0.0 mm 0.00 in0.0 mm
03:24 AM 72.0°F22.2°C 71.4°F21.9°C 98% 3.0 mph W4.8 kmh W 5.6 mph9.0 kmh 29.56 in1001.0 mb 0.00 in0.0 mm 0.00 in0.0 mm 0.00 in0.0 mm
03:23 AM 72.0°F22.2°C 71.4°F21.9°C 98% 3.0 mph W4.8 kmh W 5.6 mph9.0 kmh 29.56 in1001.0 mb 0.00 in0.0 mm 0.00 in0.0 mm 0.00 in0.0 mm
03:22 AM 72.0°F22.2°C 71.4°F21.9°C 98% 3.0 mph W4.8 kmh W 5.6 mph9.0 kmh 29.56 in1001.0 mb 0.00 in0.0 mm 0.00 in0.0 mm 0.00 in0.0 mm
03:21 AM 72.0°F22.2°C 71.4°F21.9°C 98% 3.4 mph WSW5.5 kmh WSW 5.8 mph9.3 kmh 29.56 in1001.0 mb 0.00 in0.0 mm 0.00 in0.0 mm 0.00 in0.0 mm
03:20 AM 72.0°F22.2°C 71.4°F21.9°C 98% 3.5 mph WSW5.6 kmh WSW 5.8 mph9.3 kmh 29.59 in1002.0 mb 0.00 in0.0 mm 0.00 in0.0 mm 0.00 in0.0 mm
03:19 AM 72.1°F22.3°C 71.5°F21.9°C 98% 3.7 mph WSW6.0 kmh WSW 6.5 mph10.5 kmh 29.59 in1002.0 mb 0.00 in0.0 mm 0.00 in0.0 mm 0.00 in0.0 mm
03:18 AM 72.1°F22.3°C 71.5°F21.9°C 98% 3.8 mph WSW6.1 kmh WSW 6.5 mph10.5 kmh 29.59 in1002.0 mb 0.00 in0.0 mm 0.00 in0.0 mm 0.00 in0.0 mm
03:17 AM 72.0°F22.2°C 71.4°F21.9°C 98% 4.0 mph WSW6.4 kmh WSW 6.5 mph10.5 kmh 29.59 in1002.0 mb 0.00 in0.0 mm 0.00 in0.0 mm 0.00 in0.0 mm
03:16 AM 72.0°F22.2°C 71.4°F21.9°C 98% 4.5 mph WSW7.2 kmh WSW 8.1 mph13.0 kmh 29.59 in1002.0 mb 0.00 in0.0 mm 0.00 in0.0 mm 0.00 in0.0 mm
03:15 AM 72.0°F22.2°C 71.4°F21.9°C 98% 4.4 mph SW7.1 kmh SW 8.1 mph13.0 kmh 29.59 in1002.0 mb 0.00 in0.0 mm 0.00 in0.0 mm 0.00 in0.0 mm
03:14 AM 72.1°F22.3°C 71.5°F21.9°C 98% 4.8 mph SW7.7 kmh SW 8.1 mph13.0 kmh 29.59 in1002.0 mb 0.00 in0.0 mm 0.00 in0.0 mm 0.00 in0.0 mm
03:13 AM 72.1°F22.3°C 71.5°F21.9°C 98% 5.0 mph SW8.0 kmh SW 8.1 mph13.0 kmh 29.59 in1002.0 mb 0.00 in0.0 mm 0.00 in0.0 mm 0.00 in0.0 mm
03:12 AM 72.1°F22.3°C 71.5°F21.9°C 98% 5.3 mph SW8.5 kmh SW 8.1 mph13.0 kmh 29.59 in1002.0 mb 0.00 in0.0 mm 0.00 in0.0 mm 0.00 in0.0 mm
03:11 AM 72.1°F22.3°C 71.5°F21.9°C 98% 5.8 mph SW9.3 kmh SW 9.6 mph15.4 kmh 29.59 in1002.0 mb 0.00 in0.0 mm 0.00 in0.0 mm 0.00 in0.0 mm
03:10 AM 72.1°F22.3°C 71.5°F21.9°C 98% 5.9 mph SW9.5 kmh SW 9.6 mph15.4 kmh 29.59 in1002.0 mb 0.00 in0.0 mm 0.00 in0.0 mm 0.00 in0.0 mm
03:09 AM 72.1°F22.3°C 71.5°F21.9°C 98% 5.9 mph SW9.5 kmh SW 9.6 mph15.4 kmh 29.62 in1003.0 mb 0.00 in0.0 mm 0.00 in0.0 mm 0.00 in0.0 mm
03:08 AM 72.3°F22.4°C 71.7°F22.1°C 98% 6.3 mph SW10.1 kmh SW 9.6 mph15.4 kmh 29.62 in1003.0 mb 0.00 in0.0 mm 0.00 in0.0 mm 0.00 in0.0 mm
03:07 AM 72.3°F22.4°C 71.7°F22.1°C 98% 6.3 mph SW10.1 kmh SW 9.6 mph15.4 kmh 29.62 in1003.0 mb 0.00 in0.0 mm 0.00 in0.0 mm 0.00 in0.0 mm
03:06 AM 72.3°F22.4°C 71.7°F22.1°C 98% 6.2 mph SW10.0 kmh SW 9.6 mph15.4 kmh 29.62 in1003.0 mb 0.00 in0.0 mm 0.00 in0.0 mm 0.00 in0.0 mm
03:05 AM 72.3°F22.4°C 71.7°F22.1°C 98% 6.0 mph SW9.7 kmh SW 9.6 mph15.4 kmh 29.62 in1003.0 mb 0.00 in0.0 mm 0.00 in0.0 mm 0.00 in0.0 mm
03:04 AM 72.3°F22.4°C 71.7°F22.1°C 98% 5.7 mph SW9.2 kmh SW 9.6 mph15.4 kmh 29.62 in1003.0 mb 0.00 in0.0 mm 0.00 in0.0 mm 0.00 in0.0 mm
03:03 AM 72.3°F22.4°C 71.7°F22.1°C 98% 5.5 mph SW8.9 kmh SW 9.6 mph15.4 kmh 29.62 in1003.0 mb 0.00 in0.0 mm 0.00 in0.0 mm 0.00 in0.0 mm
03:02 AM 72.3°F22.4°C 71.7°F22.1°C 98% 5.7 mph SW9.2 kmh SW 9.6 mph15.4 kmh 29.62 in1003.0 mb 0.00 in0.0 mm 0.00 in0.0 mm 0.00 in0.0 mm
03:01 AM 72.3°F22.4°C 71.7°F22.1°C 98% 5.7 mph SW9.2 kmh SW 9.6 mph15.4 kmh 29.62 in1003.0 mb 0.00 in0.0 mm 0.00 in0.0 mm 0.00 in0.0 mm
03:00 AM 72.3°F22.4°C 71.7°F22.1°C 98% 5.4 mph SW8.7 kmh SW 10.1 mph16.3 kmh 29.62 in1003.0 mb 0.00 in0.0 mm 0.00 in0.0 mm 0.00 in0.0 mm
02:59 AM 72.5°F22.5°C 71.9°F22.2°C 98% 5.6 mph SW9.0 kmh SW 10.1 mph16.3 kmh 29.62 in1003.0 mb 0.00 in0.0 mm 0.00 in0.0 mm 0.00 in0.0 mm
02:58 AM 72.5°F22.5°C 71.9°F22.2°C 98% 5.7 mph SW9.2 kmh SW 10.1 mph16.3 kmh 29.62 in1003.0 mb 0.00 in0.0 mm 0.00 in0.0 mm 0.00 in0.0 mm
02:57 AM 72.5°F22.5°C 71.9°F22.2°C 98% 5.7 mph SW9.2 kmh SW 10.1 mph16.3 kmh 29.62 in1003.0 mb 0.00 in0.0 mm 0.00 in0.0 mm 0.00 in0.0 mm
02:56 AM 72.5°F22.5°C 71.9°F22.2°C 98% 5.8 mph SW9.3 kmh SW 10.1 mph16.3 kmh 29.62 in1003.0 mb 0.00 in0.0 mm 0.00 in0.0 mm 0.00 in0.0 mm
02:55 AM 72.5°F22.5°C 71.9°F22.2°C 98% 5.9 mph SW9.5 kmh SW 10.1 mph16.3 kmh 29.62 in1003.0 mb 0.00 in0.0 mm 0.00 in0.0 mm 0.00 in0.0 mm
02:54 AM 72.5°F22.5°C 71.9°F22.2°C 98% 5.8 mph SW9.3 kmh SW 10.1 mph16.3 kmh 29.62 in1003.0 mb 0.00 in0.0 mm 0.00 in0.0 mm 0.00 in0.0 mm
02:53 AM 72.5°F22.5°C 71.9°F22.2°C 98% 6.1 mph WSW9.8 kmh WSW 10.1 mph16.3 kmh 29.62 in1003.0 mb 0.00 in0.0 mm 0.00 in0.0 mm 0.00 in0.0 mm
02:52 AM 72.7°F22.6°C 72.1°F22.3°C 98% 6.1 mph WSW9.8 kmh WSW 10.1 mph16.3 kmh 29.62 in1003.0 mb 0.00 in0.0 mm 0.00 in0.0 mm 0.00 in0.0 mm
02:51 AM 72.7°F22.6°C 72.1°F22.3°C 98% 6.0 mph SW9.7 kmh SW 10.1 mph16.3 kmh 29.62 in1003.0 mb 0.00 in0.0 mm 0.00 in0.0 mm 0.00 in0.0 mm
02:50 AM 72.7°F22.6°C 72.1°F22.3°C 98% 5.9 mph SW9.5 kmh SW 8.7 mph14.0 kmh 29.59 in1002.0 mb 0.00 in0.0 mm 0.00 in0.0 mm 0.00 in0.0 mm
02:49 AM 72.7°F22.6°C 72.1°F22.3°C 98% 5.7 mph WSW9.2 kmh WSW 8.7 mph14.0 kmh 29.59 in1002.0 mb 0.00 in0.0 mm 0.00 in0.0 mm 0.00 in0.0 mm
02:48 AM 72.7°F22.6°C 72.1°F22.3°C 98% 5.1 mph WSW8.2 kmh WSW 6.5 mph10.5 kmh 29.59 in1002.0 mb 0.00 in0.0 mm 0.00 in0.0 mm 0.00 in0.0 mm
02:47 AM 72.7°F22.6°C 72.1°F22.3°C 98% 5.0 mph WSW8.0 kmh WSW 6.5 mph10.5 kmh 29.59 in1002.0 mb 0.00 in0.0 mm 0.00 in0.0 mm 0.00 in0.0 mm
02:46 AM 72.9°F22.7°C 72.3°F22.4°C 98% 4.7 mph WSW7.6 kmh WSW 6.5 mph10.5 kmh 29.59 in1002.0 mb 0.00 in0.0 mm 0.00 in0.0 mm 0.00 in0.0 mm
02:45 AM 72.9°F22.7°C 72.3°F22.4°C 98% 4.4 mph WSW7.1 kmh WSW 6.5 mph10.5 kmh 29.59 in1002.0 mb 0.00 in0.0 mm 0.00 in0.0 mm 0.00 in0.0 mm
02:44 AM 72.9°F22.7°C 72.3°F22.4°C 98% 4.1 mph WSW6.6 kmh WSW 6.5 mph10.5 kmh 29.59 in1002.0 mb 0.00 in0.0 mm 0.00 in0.0 mm 0.00 in0.0 mm
02:43 AM 73.0°F22.8°C 72.4°F22.4°C 98% 3.6 mph WSW5.8 kmh WSW 6.5 mph10.5 kmh 29.59 in1002.0 mb 0.00 in0.0 mm 0.00 in0.0 mm 0.00 in0.0 mm
02:42 AM 73.0°F22.8°C 72.4°F22.4°C 98% 3.0 mph WSW4.8 kmh WSW 6.5 mph10.5 kmh 29.59 in1002.0 mb 0.00 in0.0 mm 0.00 in0.0 mm 0.00 in0.0 mm
02:41 AM 73.2°F22.9°C 72.6°F22.6°C 98% 2.7 mph WSW4.3 kmh WSW 6.5 mph10.5 kmh 29.59 in1002.0 mb 0.00 in0.0 mm 0.00 in0.0 mm 0.00 in0.0 mm
02:40 AM 73.2°F22.9°C 72.6°F22.6°C 98% 2.6 mph WSW4.2 kmh WSW 6.5 mph10.5 kmh 29.59 in1002.0 mb 0.00 in0.0 mm 0.00 in0.0 mm 0.00 in0.0 mm
02:39 AM 73.0°F22.8°C 72.4°F22.4°C 98% 2.2 mph WSW3.5 kmh WSW 4.3 mph6.9 kmh 29.59 in1002.0 mb 0.00 in0.0 mm 0.00 in0.0 mm 0.00 in0.0 mm
02:38 AM 73.0°F22.8°C 72.4°F22.4°C 98% 2.1 mph WSW3.4 kmh WSW 4.3 mph6.9 kmh 29.59 in1002.0 mb 0.00 in0.0 mm 0.00 in0.0 mm 0.00 in0.0 mm
02:37 AM 73.2°F22.9°C 72.6°F22.6°C 98% 1.8 mph SW2.9 kmh SW 4.3 mph6.9 kmh 29.59 in1002.0 mb 0.00 in0.0 mm 0.00 in0.0 mm 0.00 in0.0 mm
02:36 AM 73.4°F23.0°C 72.8°F22.7°C 98% 1.3 mph SW2.1 kmh SW 4.3 mph6.9 kmh 29.59 in1002.0 mb 0.00 in0.0 mm 0.00 in0.0 mm 0.00 in0.0 mm
02:35 AM 73.4°F23.0°C 72.8°F22.7°C 98% 1.3 mph S2.1 kmh S 4.3 mph6.9 kmh 29.62 in1003.0 mb 0.00 in0.0 mm 0.00 in0.0 mm 0.00 in0.0 mm
02:34 AM 73.4°F23.0°C 72.8°F22.7°C 98% 1.5 mph S2.4 kmh S 4.3 mph6.9 kmh 29.62 in1003.0 mb 0.00 in0.0 mm 0.00 in0.0 mm 0.00 in0.0 mm
02:33 AM 73.4°F23.0°C 72.8°F22.7°C 98% 1.5 mph S2.4 kmh S 4.3 mph6.9 kmh 29.62 in1003.0 mb 0.00 in0.0 mm 0.00 in0.0 mm 0.00 in0.0 mm
02:32 AM 73.4°F23.0°C 72.8°F22.7°C 98% 1.6 mph S2.6 kmh S 4.3 mph6.9 kmh 29.62 in1003.0 mb 0.00 in0.0 mm 0.00 in0.0 mm 0.00 in0.0 mm
02:31 AM 73.2°F22.9°C 72.6°F22.6°C 98% 1.8 mph S2.9 kmh S 4.3 mph6.9 kmh 29.62 in1003.0 mb 0.00 in0.0 mm 0.00 in0.0 mm 0.00 in0.0 mm
02:30 AM 73.2°F22.9°C 72.6°F22.6°C 98% 1.5 mph S2.4 kmh S 3.8 mph6.1 kmh 29.62 in1003.0 mb 0.00 in0.0 mm 0.00 in0.0 mm 0.00 in0.0 mm
02:29 AM 73.6°F23.1°C 73.0°F22.8°C 98% 1.3 mph S2.1 kmh S 3.8 mph6.1 kmh 29.62 in1003.0 mb 0.00 in0.0 mm 0.00 in0.0 mm 0.00 in0.0 mm
02:28 AM 73.6°F23.1°C 73.0°F22.8°C 98% 1.1 mph S1.8 kmh S 3.8 mph6.1 kmh 29.62 in1003.0 mb 0.00 in0.0 mm 0.00 in0.0 mm 0.00 in0.0 mm
02:27 AM 73.6°F23.1°C 73.0°F22.8°C 98% 1.1 mph S1.8 kmh S 3.8 mph6.1 kmh 29.62 in1003.0 mb 0.00 in0.0 mm 0.00 in0.0 mm 0.00 in0.0 mm
02:26 AM 73.6°F23.1°C 73.0°F22.8°C 98% 1.0 mph SSE1.6 kmh SSE 3.8 mph6.1 kmh 29.62 in1003.0 mb 0.00 in0.0 mm 0.00 in0.0 mm 0.00 in0.0 mm
02:25 AM 73.6°F23.1°C 73.0°F22.8°C 98% 1.0 mph SSE1.6 kmh SSE 3.8 mph6.1 kmh 29.62 in1003.0 mb 0.00 in0.0 mm 0.00 in0.0 mm 0.00 in0.0 mm
02:24 AM 73.4°F23.0°C 72.8°F22.7°C 98% 0.5 mph SSE0.8 kmh SSE 3.8 mph6.1 kmh 29.62 in1003.0 mb 0.00 in0.0 mm 0.00 in0.0 mm 0.00 in0.0 mm
02:23 AM 73.4°F23.0°C 72.8°F22.7°C 98% Calm Calm -- 29.62 in1003.0 mb 0.00 in0.0 mm 0.00 in0.0 mm 0.00 in0.0 mm
02:22 AM 73.4°F23.0°C 72.8°F22.7°C 98% Calm Calm -- 29.62 in1003.0 mb 0.00 in0.0 mm 0.00 in0.0 mm 0.00 in0.0 mm
02:21 AM 73.8°F23.2°C 73.2°F22.9°C 98% 0.6 mph SSW1.0 kmh SSW 2.5 mph4.0 kmh 29.62 in1003.0 mb 0.00 in0.0 mm 0.00 in0.0 mm 0.00 in0.0 mm
02:20 AM 73.8°F23.2°C 73.2°F22.9°C 98% 0.6 mph SSW1.0 kmh SSW 2.5 mph4.0 kmh 29.62 in1003.0 mb 0.00 in0.0 mm 0.00 in0.0 mm 0.00 in0.0 mm
02:19 AM 73.9°F23.3°C 73.3°F22.9°C 98% 1.2 mph SW1.9 kmh SW 3.1 mph5.0 kmh 29.62 in1003.0 mb 0.00 in0.0 mm 0.00 in0.0 mm 0.00 in0.0 mm
02:18 AM 73.9°F23.3°C 73.3°F22.9°C 98% 1.2 mph SW1.9 kmh SW 3.1 mph5.0 kmh 29.62 in1003.0 mb 0.00 in0.0 mm 0.00 in0.0 mm 0.00 in0.0 mm
02:17 AM 73.9°F23.3°C 73.3°F22.9°C 98% 1.8 mph SW2.9 kmh SW 3.1 mph5.0 kmh 29.62 in1003.0 mb 0.00 in0.0 mm 0.00 in0.0 mm 0.00 in0.0 mm
02:16 AM 73.9°F23.3°C 73.3°F22.9°C 98% 1.8 mph SW2.9 kmh SW 3.1 mph5.0 kmh 29.62 in1003.0 mb 0.00 in0.0 mm 0.00 in0.0 mm 0.00 in0.0 mm
02:15 AM 73.9°F23.3°C 73.3°F22.9°C 98% 1.8 mph WSW2.9 kmh WSW 3.1 mph5.0 kmh 29.62 in1003.0 mb 0.00 in0.0 mm 0.00 in0.0 mm 0.00 in0.0 mm
02:14 AM 73.9°F23.3°C 73.3°F22.9°C 98% 1.9 mph SW3.1 kmh SW 3.1 mph5.0 kmh 29.62 in1003.0 mb 0.00 in0.0 mm 0.00 in0.0 mm 0.00 in0.0 mm
02:13 AM 73.9°F23.3°C 73.3°F22.9°C 98% 1.9 mph SW3.1 kmh SW 3.1 mph5.0 kmh 29.62 in1003.0 mb 0.00 in0.0 mm 0.00 in0.0 mm 0.00 in0.0 mm
02:12 AM 73.9°F23.3°C 73.3°F22.9°C 98% 1.9 mph SW3.1 kmh SW 3.1 mph5.0 kmh 29.62 in1003.0 mb 0.00 in0.0 mm 0.00 in0.0 mm 0.00 in0.0 mm
02:11 AM 73.9°F23.3°C 73.3°F22.9°C 98% 1.8 mph SW2.9 kmh SW 3.1 mph5.0 kmh 29.62 in1003.0 mb 0.00 in0.0 mm 0.00 in0.0 mm 0.00 in0.0 mm
02:10 AM 74.1°F23.4°C 73.5°F23.1°C 98% 1.6 mph WSW2.6 kmh WSW 3.1 mph5.0 kmh 29.62 in1003.0 mb 0.00 in0.0 mm 0.00 in0.0 mm 0.00 in0.0 mm
02:09 AM 74.1°F23.4°C 73.5°F23.1°C 98% 1.5 mph WSW2.4 kmh WSW 3.1 mph5.0 kmh 29.59 in1002.0 mb 0.00 in0.0 mm 0.00 in0.0 mm 0.00 in0.0 mm
02:08 AM 73.9°F23.3°C 73.3°F22.9°C 98% 1.2 mph WSW1.9 kmh WSW 3.1 mph5.0 kmh 29.59 in1002.0 mb 0.00 in0.0 mm 0.00 in0.0 mm 0.00 in0.0 mm
02:07 AM 73.9°F23.3°C 73.3°F22.9°C 98% 0.9 mph WSW1.4 kmh WSW 3.1 mph5.0 kmh 29.59 in1002.0 mb 0.00 in0.0 mm 0.00 in0.0 mm 0.00 in0.0 mm
02:06 AM 73.9°F23.3°C 73.3°F22.9°C 98% 0.5 mph WSW0.8 kmh WSW 3.1 mph5.0 kmh 29.59 in1002.0 mb 0.00 in0.0 mm 0.00 in0.0 mm 0.00 in0.0 mm
02:05 AM 73.9°F23.3°C 73.3°F22.9°C 98% 0.4 mph SW0.6 kmh SW 2.2 mph3.5 kmh 29.59 in1002.0 mb 0.00 in0.0 mm 0.00 in0.0 mm 0.00 in0.0 mm
02:04 AM 73.9°F23.3°C 73.3°F22.9°C 98% 0.3 mph SW0.5 kmh SW 2.2 mph3.5 kmh 29.59 in1002.0 mb 0.00 in0.0 mm 0.00 in0.0 mm 0.00 in0.0 mm
02:03 AM 73.8°F23.2°C 73.2°F22.9°C 98% 0.1 mph SW0.2 kmh SW 2.2 mph3.5 kmh 29.59 in1002.0 mb 0.00 in0.0 mm 0.00 in0.0 mm 0.00 in0.0 mm
02:02 AM 73.8°F23.2°C 73.2°F22.9°C 98% Calm Calm -- 29.59 in1002.0 mb 0.00 in0.0 mm 0.00 in0.0 mm 0.00 in0.0 mm
02:01 AM 73.8°F23.2°C 73.2°F22.9°C 98% Calm Calm -- 29.59 in1002.0 mb 0.00 in0.0 mm 0.00 in0.0 mm 0.00 in0.0 mm
02:00 AM 73.8°F23.2°C 73.2°F22.9°C 98% Calm Calm -- 29.59 in1002.0 mb 0.00 in0.0 mm 0.00 in0.0 mm 0.00 in0.0 mm
01:59 AM 73.8°F23.2°C 73.2°F22.9°C 98% Calm Calm -- 29.59 in1002.0 mb 0.00 in0.0 mm 0.00 in0.0 mm 0.00 in0.0 mm
01:58 AM 73.8°F23.2°C 73.2°F22.9°C 98% Calm Calm -- 29.59 in1002.0 mb 0.00 in0.0 mm 0.00 in0.0 mm 0.00 in0.0 mm
01:57 AM 73.8°F23.2°C 73.2°F22.9°C 98% Calm Calm -- 29.59 in1002.0 mb 0.00 in0.0 mm 0.00 in0.0 mm 0.00 in0.0 mm
01:56 AM 73.8°F23.2°C 73.2°F22.9°C 98% Calm Calm -- 29.59 in1002.0 mb 0.00 in0.0 mm 0.00 in0.0 mm 0.00 in0.0 mm
01:55 AM 73.8°F23.2°C 73.2°F22.9°C 98% Calm Calm -- 29.59 in1002.0 mb 0.00 in0.0 mm 0.00 in0.0 mm 0.00 in0.0 mm
01:54 AM 73.8°F23.2°C 73.2°F22.9°C 98% Calm Calm -- 29.59 in1002.0 mb 0.00 in0.0 mm 0.00 in0.0 mm 0.00 in0.0 mm
01:53 AM 73.8°F23.2°C 73.2°F22.9°C 98% Calm Calm -- 29.59 in1002.0 mb 0.00 in0.0 mm 0.00 in0.0 mm 0.00 in0.0 mm
01:52 AM 73.8°F23.2°C 73.2°F22.9°C 98% Calm Calm -- 29.59 in1002.0 mb 0.00 in0.0 mm 0.00 in0.0 mm 0.00 in0.0 mm
01:51 AM 73.8°F23.2°C 73.2°F22.9°C 98% Calm Calm -- 29.59 in1002.0 mb 0.00 in0.0 mm 0.00 in0.0 mm 0.00 in0.0 mm
01:50 AM 73.8°F23.2°C 73.2°F22.9°C 98% Calm Calm -- 29.59 in1002.0 mb 0.00 in0.0 mm 0.00 in0.0 mm 0.00 in0.0 mm
01:49 AM 73.8°F23.2°C 73.2°F22.9°C 98% Calm Calm -- 29.59 in1002.0 mb 0.00 in0.0 mm 0.00 in0.0 mm 0.00 in0.0 mm
01:48 AM 73.8°F23.2°C 73.2°F22.9°C 98% Calm Calm -- 29.59 in1002.0 mb 0.00 in0.0 mm 0.00 in0.0 mm 0.00 in0.0 mm
01:47 AM 73.8°F23.2°C 73.2°F22.9°C 98% Calm Calm -- 29.59 in1002.0 mb 0.00 in0.0 mm 0.00 in0.0 mm 0.00 in0.0 mm
01:46 AM 73.8°F23.2°C 73.2°F22.9°C 98% Calm Calm -- 29.59 in1002.0 mb 0.00 in0.0 mm 0.00 in0.0 mm 0.00 in0.0 mm
01:45 AM 73.8°F23.2°C 73.2°F22.9°C 98% Calm Calm -- 29.59 in1002.0 mb 0.00 in0.0 mm 0.00 in0.0 mm 0.00 in0.0 mm
01:44 AM 73.8°F23.2°C 73.2°F22.9°C 98% Calm Calm -- 29.59 in1002.0 mb 0.00 in0.0 mm 0.00 in0.0 mm 0.00 in0.0 mm
01:43 AM 73.8°F23.2°C 73.2°F22.9°C 98% Calm Calm -- 29.59 in1002.0 mb 0.00 in0.0 mm 0.00 in0.0 mm 0.00 in0.0 mm
01:42 AM 73.8°F23.2°C 73.2°F22.9°C 98% Calm Calm -- 29.59 in1002.0 mb 0.00 in0.0 mm 0.00 in0.0 mm 0.00 in0.0 mm
01:41 AM 73.8°F23.2°C 73.2°F22.9°C 98% Calm Calm -- 29.59 in1002.0 mb 0.00 in0.0 mm 0.00 in0.0 mm 0.00 in0.0 mm
01:40 AM 73.8°F23.2°C 73.2°F22.9°C 98% Calm Calm -- 29.59 in1002.0 mb 0.00 in0.0 mm 0.00 in0.0 mm 0.00 in0.0 mm
01:39 AM 73.8°F23.2°C 73.2°F22.9°C 98% Calm Calm -- 29.59 in1002.0 mb 0.00 in0.0 mm 0.00 in0.0 mm 0.00 in0.0 mm
01:38 AM 73.8°F23.2°C 73.2°F22.9°C 98% Calm Calm -- 29.59 in1002.0 mb 0.00 in0.0 mm 0.00 in0.0 mm 0.00 in0.0 mm
01:37 AM 73.8°F23.2°C 73.2°F22.9°C 98% Calm Calm -- 29.59 in1002.0 mb 0.00 in0.0 mm 0.00 in0.0 mm 0.00 in0.0 mm
01:36 AM 73.8°F23.2°C 73.2°F22.9°C 98% Calm Calm -- 29.59 in1002.0 mb 0.00 in0.0 mm 0.00 in0.0 mm 0.00 in0.0 mm
01:35 AM 73.8°F23.2°C 73.2°F22.9°C 98% Calm Calm -- 29.59 in1002.0 mb 0.00 in0.0 mm 0.00 in0.0 mm 0.00 in0.0 mm
01:34 AM 73.8°F23.2°C 73.2°F22.9°C 98% Calm Calm -- 29.59 in1002.0 mb 0.00 in0.0 mm 0.00 in0.0 mm 0.00 in0.0 mm
01:33 AM 73.8°F23.2°C 73.2°F22.9°C 98% Calm Calm -- 29.59 in1002.0 mb 0.00 in0.0 mm 0.00 in0.0 mm 0.00 in0.0 mm
01:32 AM 73.8°F23.2°C 73.2°F22.9°C 98% Calm Calm -- 29.59 in1002.0 mb 0.00 in0.0 mm 0.00 in0.0 mm 0.00 in0.0 mm
01:31 AM 73.6°F23.1°C 73.0°F22.8°C 98% Calm Calm -- 29.59 in1002.0 mb 0.00 in0.0 mm 0.00 in0.0 mm 0.00 in0.0 mm
01:30 AM 73.6°F23.1°C 73.0°F22.8°C 98% Calm Calm -- 29.59 in1002.0 mb 0.00 in0.0 mm 0.00 in0.0 mm 0.00 in0.0 mm
01:29 AM 73.6°F23.1°C 73.0°F22.8°C 98% Calm Calm -- 29.59 in1002.0 mb 0.00 in0.0 mm 0.00 in0.0 mm 0.00 in0.0 mm
01:28 AM 73.6°F23.1°C 73.0°F22.8°C 98% Calm Calm -- 29.59 in1002.0 mb 0.00 in0.0 mm 0.00 in0.0 mm 0.00 in0.0 mm
01:27 AM 73.6°F23.1°C 73.0°F22.8°C 98% Calm Calm -- 29.59 in1002.0 mb 0.00 in0.0 mm 0.00 in0.0 mm 0.00 in0.0 mm
01:26 AM 73.6°F23.1°C 73.0°F22.8°C 98% Calm Calm -- 29.59 in1002.0 mb 0.00 in0.0 mm 0.00 in0.0 mm 0.00 in0.0 mm
01:25 AM 73.6°F23.1°C 73.0°F22.8°C 98% Calm Calm -- 29.59 in1002.0 mb 0.00 in0.0 mm 0.00 in0.0 mm 0.00 in0.0 mm
01:24 AM 73.6°F23.1°C 73.0°F22.8°C 98% Calm Calm -- 29.59 in1002.0 mb 0.00 in0.0 mm 0.00 in0.0 mm 0.00 in0.0 mm
01:23 AM 73.6°F23.1°C 73.0°F22.8°C 98% Calm Calm -- 29.59 in1002.0 mb 0.00 in0.0 mm 0.00 in0.0 mm 0.00 in0.0 mm
01:22 AM 73.6°F23.1°C 73.0°F22.8°C 98% Calm Calm -- 29.59 in1002.0 mb 0.00 in0.0 mm 0.00 in0.0 mm 0.00 in0.0 mm
01:21 AM 73.6°F23.1°C 73.0°F22.8°C 98% Calm Calm -- 29.59 in1002.0 mb 0.00 in0.0 mm 0.00 in0.0 mm 0.00 in0.0 mm
01:20 AM 73.6°F23.1°C 73.0°F22.8°C 98% Calm Calm -- 29.59 in1002.0 mb 0.00 in0.0 mm 0.00 in0.0 mm 0.00 in0.0 mm
01:19 AM 73.6°F23.1°C 73.0°F22.8°C 98% Calm Calm -- 29.59 in1002.0 mb 0.00 in0.0 mm 0.00 in0.0 mm 0.00 in0.0 mm
01:18 AM 73.6°F23.1°C 73.0°F22.8°C 98% Calm Calm -- 29.59 in1002.0 mb 0.00 in0.0 mm 0.00 in0.0 mm 0.00 in0.0 mm
01:17 AM 73.6°F23.1°C 73.0°F22.8°C 98% Calm Calm -- 29.59 in1002.0 mb 0.00 in0.0 mm 0.00 in0.0 mm 0.00 in0.0 mm
01:16 AM 73.6°F23.1°C 73.0°F22.8°C 98% Calm Calm -- 29.59 in1002.0 mb 0.00 in0.0 mm 0.00 in0.0 mm 0.00 in0.0 mm
01:15 AM 73.6°F23.1°C 73.0°F22.8°C 98% Calm Calm -- 29.59 in1002.0 mb 0.00 in0.0 mm 0.00 in0.0 mm 0.00 in0.0 mm
01:14 AM 73.6°F23.1°C 73.0°F22.8°C 98% Calm Calm -- 29.59 in1002.0 mb 0.00 in0.0 mm 0.00 in0.0 mm 0.00 in0.0 mm
01:13 AM 73.6°F23.1°C 73.0°F22.8°C 98% Calm Calm -- 29.59 in1002.0 mb 0.00 in0.0 mm 0.00 in0.0 mm 0.00 in0.0 mm
01:12 AM 73.6°F23.1°C 73.0°F22.8°C 98% Calm Calm -- 29.59 in1002.0 mb 0.00 in0.0 mm 0.00 in0.0 mm 0.00 in0.0 mm
01:11 AM 73.6°F23.1°C 73.0°F22.8°C 98% Calm Calm -- 29.59 in1002.0 mb 0.00 in0.0 mm 0.00 in0.0 mm 0.00 in0.0 mm
01:10 AM 73.6°F23.1°C 73.0°F22.8°C 98% Calm Calm -- 29.59 in1002.0 mb 0.00 in0.0 mm 0.00 in0.0 mm 0.00 in0.0 mm
01:09 AM 73.6°F23.1°C 73.0°F22.8°C 98% Calm Calm -- 29.59 in1002.0 mb 0.00 in0.0 mm 0.00 in0.0 mm 0.00 in0.0 mm
01:08 AM 73.6°F23.1°C 73.0°F22.8°C 98% Calm Calm -- 29.59 in1002.0 mb 0.00 in0.0 mm 0.00 in0.0 mm 0.00 in0.0 mm
01:07 AM 73.6°F23.1°C 73.0°F22.8°C 98% Calm Calm -- 29.59 in1002.0 mb 0.00 in0.0 mm 0.00 in0.0 mm 0.00 in0.0 mm
01:06 AM 73.6°F23.1°C 73.0°F22.8°C 98% Calm Calm -- 29.59 in1002.0 mb 0.00 in0.0 mm 0.00 in0.0 mm 0.00 in0.0 mm
01:05 AM 73.6°F23.1°C 73.0°F22.8°C 98% Calm Calm -- 29.62 in1003.0 mb 0.00 in0.0 mm 0.00 in0.0 mm 0.00 in0.0 mm
01:04 AM 73.6°F23.1°C 73.0°F22.8°C 98% Calm Calm -- 29.62 in1003.0 mb 0.00 in0.0 mm 0.00 in0.0 mm 0.00 in0.0 mm
01:03 AM 73.6°F23.1°C 73.0°F22.8°C 98% Calm Calm -- 29.62 in1003.0 mb 0.00 in0.0 mm 0.00 in0.0 mm 0.00 in0.0 mm
01:02 AM 73.6°F23.1°C 73.0°F22.8°C 98% Calm Calm -- 29.62 in1003.0 mb 0.00 in0.0 mm 0.00 in0.0 mm 0.00 in0.0 mm
01:01 AM 73.6°F23.1°C 73.0°F22.8°C 98% Calm Calm -- 29.62 in1003.0 mb 0.00 in0.0 mm 0.00 in0.0 mm 0.00 in0.0 mm
01:00 AM 73.6°F23.1°C 73.0°F22.8°C 98% Calm Calm -- 29.62 in1003.0 mb 0.00 in0.0 mm 0.00 in0.0 mm 0.00 in0.0 mm
12:59 AM 73.6°F23.1°C 73.0°F22.8°C 98% Calm Calm -- 29.62 in1003.0 mb 0.00 in0.0 mm 0.00 in0.0 mm 0.00 in0.0 mm
12:58 AM 73.6°F23.1°C 73.0°F22.8°C 98% Calm Calm -- 29.62 in1003.0 mb 0.00 in0.0 mm 0.00 in0.0 mm 0.00 in0.0 mm
12:57 AM 73.6°F23.1°C 73.0°F22.8°C 98% Calm Calm -- 29.62 in1003.0 mb 0.00 in0.0 mm 0.00 in0.0 mm 0.00 in0.0 mm
12:56 AM 73.6°F23.1°C 73.0°F22.8°C 98% Calm Calm -- 29.62 in1003.0 mb 0.00 in0.0 mm 0.00 in0.0 mm 0.00 in0.0 mm
12:55 AM 73.6°F23.1°C 73.0°F22.8°C 98% Calm Calm -- 29.62 in1003.0 mb 0.00 in0.0 mm 0.00 in0.0 mm 0.00 in0.0 mm
12:54 AM 73.6°F23.1°C 73.0°F22.8°C 98% Calm Calm -- 29.62 in1003.0 mb 0.00 in0.0 mm 0.00 in0.0 mm 0.00 in0.0 mm
12:53 AM 73.6°F23.1°C 73.0°F22.8°C 98% Calm Calm -- 29.62 in1003.0 mb 0.00 in0.0 mm 0.00 in0.0 mm 0.00 in0.0 mm
12:52 AM 73.6°F23.1°C 73.0°F22.8°C 98% Calm Calm -- 29.62 in1003.0 mb 0.00 in0.0 mm 0.00 in0.0 mm 0.00 in0.0 mm
12:51 AM 73.6°F23.1°C 73.0°F22.8°C 98% Calm Calm -- 29.62 in1003.0 mb 0.00 in0.0 mm 0.00 in0.0 mm 0.00 in0.0 mm
12:50 AM 73.6°F23.1°C 73.0°F22.8°C 98% 0.1 mph W0.2 kmh W 1.1 mph1.8 kmh 29.59 in1002.0 mb 0.00 in0.0 mm 0.00 in0.0 mm 0.00 in0.0 mm
12:49 AM 73.6°F23.1°C 73.0°F22.8°C 98% 0.1 mph W0.2 kmh W 1.1 mph1.8 kmh 29.59 in1002.0 mb 0.00 in0.0 mm 0.00 in0.0 mm 0.00 in0.0 mm
12:48 AM 73.6°F23.1°C 73.0°F22.8°C 98% 0.1 mph W0.2 kmh W 1.1 mph1.8 kmh 29.59 in1002.0 mb 0.00 in0.0 mm 0.00 in0.0 mm 0.00 in0.0 mm
12:47 AM 73.6°F23.1°C 73.0°F22.8°C 98% 0.1 mph W0.2 kmh W 1.1 mph1.8 kmh 29.59 in1002.0 mb 0.00 in0.0 mm 0.00 in0.0 mm 0.00 in0.0 mm
12:46 AM 73.6°F23.1°C 73.0°F22.8°C 98% 0.1 mph W0.2 kmh W 1.1 mph1.8 kmh 29.59 in1002.0 mb 0.00 in0.0 mm 0.00 in0.0 mm 0.00 in0.0 mm
12:45 AM 73.6°F23.1°C 73.0°F22.8°C 98% 0.1 mph W0.2 kmh W 1.1 mph1.8 kmh 29.59 in1002.0 mb 0.00 in0.0 mm 0.00 in0.0 mm 0.00 in0.0 mm
12:44 AM 73.6°F23.1°C 73.0°F22.8°C 98% 0.1 mph W0.2 kmh W 1.1 mph1.8 kmh 29.59 in1002.0 mb 0.00 in0.0 mm 0.00 in0.0 mm 0.00 in0.0 mm
12:43 AM 73.6°F23.1°C 73.0°F22.8°C 98% 0.1 mph W0.2 kmh W 1.1 mph1.8 kmh 29.59 in1002.0 mb 0.00 in0.0 mm 0.00 in0.0 mm 0.00 in0.0 mm
12:42 AM 73.6°F23.1°C 73.0°F22.8°C 98% 0.1 mph W0.2 kmh W 1.1 mph1.8 kmh 29.59 in1002.0 mb 0.00 in0.0 mm 0.00 in0.0 mm 0.00 in0.0 mm
12:41 AM 73.8°F23.2°C 73.2°F22.9°C 98% 0.1 mph W0.2 kmh W 1.1 mph1.8 kmh 29.59 in1002.0 mb 0.00 in0.0 mm 0.00 in0.0 mm 0.00 in0.0 mm
12:40 AM 73.8°F23.2°C 73.2°F22.9°C 98% Calm Calm -- 29.59 in1002.0 mb 0.00 in0.0 mm 0.00 in0.0 mm 0.00 in0.0 mm
12:39 AM 73.8°F23.2°C 73.2°F22.9°C 98% Calm Calm -- 29.59 in1002.0 mb 0.00 in0.0 mm 0.00 in0.0 mm 0.00 in0.0 mm
12:38 AM 73.8°F23.2°C 73.2°F22.9°C 98% Calm Calm -- 29.59 in1002.0 mb 0.00 in0.0 mm 0.00 in0.0 mm 0.00 in0.0 mm
12:37 AM 73.9°F23.3°C 73.3°F22.9°C 98% Calm Calm -- 29.59 in1002.0 mb 0.00 in0.0 mm 0.00 in0.0 mm 0.00 in0.0 mm
12:36 AM 73.9°F23.3°C 73.3°F22.9°C 98% Calm Calm -- 29.59 in1002.0 mb 0.00 in0.0 mm 0.00 in0.0 mm 0.00 in0.0 mm
12:35 AM 73.9°F23.3°C 73.3°F22.9°C 98% Calm Calm -- 29.62 in1003.0 mb 0.00 in0.0 mm 0.00 in0.0 mm 0.00 in0.0 mm
12:34 AM 73.9°F23.3°C 73.3°F22.9°C 98% Calm Calm -- 29.62 in1003.0 mb 0.00 in0.0 mm 0.00 in0.0 mm 0.00 in0.0 mm
12:33 AM 73.9°F23.3°C 73.3°F22.9°C 98% Calm Calm -- 29.62 in1003.0 mb 0.00 in0.0 mm 0.00 in0.0 mm 0.00 in0.0 mm
12:32 AM 73.9°F23.3°C 73.3°F22.9°C 98% Calm Calm -- 29.62 in1003.0 mb 0.00 in0.0 mm 0.00 in0.0 mm 0.00 in0.0 mm
12:31 AM 73.9°F23.3°C 73.3°F22.9°C 98% Calm Calm -- 29.62 in1003.0 mb 0.00 in0.0 mm 0.00 in0.0 mm 0.00 in0.0 mm
12:30 AM 73.9°F23.3°C 73.3°F22.9°C 98% Calm Calm -- 29.62 in1003.0 mb 0.00 in0.0 mm 0.00 in0.0 mm 0.00 in0.0 mm
12:29 AM 73.9°F23.3°C 73.3°F22.9°C 98% Calm Calm -- 29.62 in1003.0 mb 0.00 in0.0 mm 0.00 in0.0 mm 0.00 in0.0 mm
12:28 AM 73.9°F23.3°C 73.3°F22.9°C 98% Calm Calm -- 29.62 in1003.0 mb 0.00 in0.0 mm 0.00 in0.0 mm 0.00 in0.0 mm
12:27 AM 73.9°F23.3°C 73.3°F22.9°C 98% Calm Calm -- 29.62 in1003.0 mb 0.00 in0.0 mm 0.00 in0.0 mm 0.00 in0.0 mm
12:26 AM 73.9°F23.3°C 73.3°F22.9°C 98% Calm Calm -- 29.62 in1003.0 mb 0.00 in0.0 mm 0.00 in0.0 mm 0.00 in0.0 mm
12:25 AM 73.9°F23.3°C 73.3°F22.9°C 98% Calm Calm -- 29.62 in1003.0 mb 0.00 in0.0 mm 0.00 in0.0 mm 0.00 in0.0 mm
12:24 AM 73.9°F23.3°C 73.3°F22.9°C 98% Calm Calm -- 29.62 in1003.0 mb 0.00 in0.0 mm 0.00 in0.0 mm 0.00 in0.0 mm
12:23 AM 74.1°F23.4°C 73.5°F23.1°C 98% Calm Calm -- 29.62 in1003.0 mb 0.00 in0.0 mm 0.00 in0.0 mm 0.00 in0.0 mm
12:22 AM 74.1°F23.4°C 73.5°F23.1°C 98% Calm Calm -- 29.62 in1003.0 mb 0.00 in0.0 mm 0.00 in0.0 mm 0.00 in0.0 mm
12:21 AM 74.1°F23.4°C 73.5°F23.1°C 98% Calm Calm -- 29.62 in1003.0 mb 0.00 in0.0 mm 0.00 in0.0 mm 0.00 in0.0 mm
12:20 AM 74.1°F23.4°C 73.5°F23.1°C 98% Calm Calm -- 29.62 in1003.0 mb 0.00 in0.0 mm 0.00 in0.0 mm 0.00 in0.0 mm
12:19 AM 74.1°F23.4°C 73.5°F23.1°C 98% Calm Calm -- 29.62 in1003.0 mb 0.00 in0.0 mm 0.00 in0.0 mm 0.00 in0.0 mm
12:18 AM 73.9°F23.3°C 73.3°F22.9°C 98% Calm Calm -- 29.62 in1003.0 mb 0.00 in0.0 mm 0.00 in0.0 mm 0.00 in0.0 mm
12:17 AM 73.9°F23.3°C 73.3°F22.9°C 98% Calm Calm -- 29.62 in1003.0 mb 0.00 in0.0 mm 0.00 in0.0 mm 0.00 in0.0 mm
12:16 AM 74.1°F23.4°C 73.5°F23.1°C 98% Calm Calm -- 29.62 in1003.0 mb 0.00 in0.0 mm 0.00 in0.0 mm 0.00 in0.0 mm
12:15 AM 74.1°F23.4°C 73.5°F23.1°C 98% Calm Calm -- 29.62 in1003.0 mb 0.00 in0.0 mm 0.00 in0.0 mm 0.00 in0.0 mm
12:14 AM 73.9°F23.3°C 73.3°F22.9°C 98% Calm Calm -- 29.62 in1003.0 mb 0.00 in0.0 mm 0.00 in0.0 mm 0.00 in0.0 mm
12:13 AM 73.9°F23.3°C 73.3°F22.9°C 98% Calm Calm -- 29.62 in1003.0 mb 0.00 in0.0 mm 0.00 in0.0 mm 0.00 in0.0 mm
12:12 AM 73.9°F23.3°C 73.3°F22.9°C 98% Calm Calm -- 29.62 in1003.0 mb 0.00 in0.0 mm 0.00 in0.0 mm 0.00 in0.0 mm
12:11 AM 73.9°F23.3°C 73.3°F22.9°C 98% Calm Calm -- 29.62 in1003.0 mb 0.00 in0.0 mm 0.00 in0.0 mm 0.00 in0.0 mm
12:10 AM 73.9°F23.3°C 73.3°F22.9°C 98% Calm Calm -- 29.62 in1003.0 mb 0.00 in0.0 mm 0.00 in0.0 mm 0.00 in0.0 mm
12:09 AM 73.9°F23.3°C 73.3°F22.9°C 98% 0.1 mph WSW0.2 kmh WSW 1.3 mph2.1 kmh 29.62 in1003.0 mb 0.00 in0.0 mm 0.00 in0.0 mm 0.00 in0.0 mm
12:08 AM 73.9°F23.3°C 73.3°F22.9°C 98% 0.1 mph WSW0.2 kmh WSW 1.3 mph2.1 kmh 29.62 in1003.0 mb 0.00 in0.0 mm 0.00 in0.0 mm 0.00 in0.0 mm
12:07 AM 73.9°F23.3°C 73.3°F22.9°C 98% 0.2 mph WSW0.3 kmh WSW 1.3 mph2.1 kmh 29.62 in1003.0 mb 0.00 in0.0 mm 0.00 in0.0 mm 0.00 in0.0 mm
12:06 AM 73.9°F23.3°C 73.3°F22.9°C 98% 0.2 mph WSW0.3 kmh WSW 1.3 mph2.1 kmh 29.62 in1003.0 mb 0.00 in0.0 mm 0.00 in0.0 mm 0.00 in0.0 mm
12:05 AM 73.9°F23.3°C 73.3°F22.9°C 98% 0.2 mph WSW0.3 kmh WSW 1.3 mph2.1 kmh 29.62 in1003.0 mb 0.00 in0.0 mm 0.00 in0.0 mm 0.00 in0.0 mm
12:04 AM 73.9°F23.3°C 73.3°F22.9°C 98% 0.2 mph WSW0.3 kmh WSW 1.3 mph2.1 kmh 29.62 in1003.0 mb 0.00 in0.0 mm 0.00 in0.0 mm 0.00 in0.0 mm
12:03 AM 73.9°F23.3°C 73.3°F22.9°C 98% 0.2 mph WSW0.3 kmh WSW 1.3 mph2.1 kmh 29.62 in1003.0 mb 0.00 in0.0 mm 0.00 in0.0 mm 0.00 in0.0 mm
12:02 AM 73.9°F23.3°C 73.3°F22.9°C 98% 0.2 mph WSW0.3 kmh WSW 1.3 mph2.1 kmh 29.62 in1003.0 mb 0.00 in0.0 mm 0.00 in0.0 mm 0.00 in0.0 mm
12:01 AM 73.9°F23.3°C 73.3°F22.9°C 98% 0.3 mph WSW0.5 kmh WSW 1.3 mph2.1 kmh 29.62 in1003.0 mb 0.00 in0.0 mm 0.00 in0.0 mm 0.00 in0.0 mm
12:00 AM 73.9°F23.3°C 73.3°F22.9°C 98% 0.5 mph WSW0.8 kmh WSW 2.7 mph4.3 kmh 29.62 in1003.0 mb 0.00 in0.0 mm 0.00 in0.0 mm 0.00 in0.0 mm